CLX6572 KMIA-SBKP
Flight info
| Callsign | CLX6572 |
|---|---|
| Flight time | 7h 18m |
| Altitude | 33000 |
| Route | NNOCE2 URSUS UP406 BILSI UL795 MAGTA/N0496F350 UL795 LOGON UL793 UGAGA DCT LOMIG DCT UKBEL/N0492F370 DCT OGTIT DCT UGAPI UL201 PANAB UZ87 ASDOV DCT UTLOT UTLOT3A |
| Aircraft | B744/H-SDE2E3FGHIJ4J5M1RWXYZ/LB2D1 |
Departure
| Time | 2026-05-06 15:10 |
|---|---|
| Airport | Miami International Airport (KMIA) |
Arrival
| Time | 2026-05-06 22:29 |
|---|---|
| Airport | Viracopos International Airport (SBKP) |
| Time | Latitude | Longitude | Altitude | Speed | Heading |
|---|---|---|---|---|---|
| 2026-05-06 13:51 | 25.78941 | -80.30649 | 21 ft | 0 kts | 267° |
| 2026-05-06 14:55 | 25.78941 | -80.30643 | 21 ft | 2 kts | 267° |
| 2026-05-06 14:56 | 25.78942 | -80.30625 | 21 ft | 2 kts | 267° |
| 2026-05-06 14:56 | 25.78943 | -80.30607 | 21 ft | 2 kts | 267° |
| 2026-05-06 14:56 | 25.78943 | -80.30589 | 21 ft | 2 kts | 265° |
| 2026-05-06 14:56 | 25.78947 | -80.30573 | 21 ft | 2 kts | 244° |
| 2026-05-06 14:57 | 25.78954 | -80.30563 | 21 ft | 2 kts | 207° |
| 2026-05-06 14:57 | 25.78966 | -80.30560 | 21 ft | 2 kts | 175° |
| 2026-05-06 14:57 | 25.78982 | -80.30562 | 21 ft | 2 kts | 175° |
| 2026-05-06 14:57 | 25.78990 | -80.30563 | 21 ft | 2 kts | 179° |
| 2026-05-06 14:58 | 25.78962 | -80.30562 | 21 ft | 4 kts | 179° |
| 2026-05-06 14:58 | 25.78934 | -80.30561 | 21 ft | 4 kts | 178° |
| 2026-05-06 14:58 | 25.78928 | -80.30561 | 21 ft | 0 kts | 178° |
| 2026-05-06 15:05 | 25.78908 | -80.30560 | 21 ft | 5 kts | 178° |
| 2026-05-06 15:05 | 25.78865 | -80.30569 | 21 ft | 7 kts | 215° |
| 2026-05-06 15:06 | 25.78844 | -80.30613 | 21 ft | 7 kts | 260° |
| 2026-05-06 15:06 | 25.78839 | -80.30675 | 21 ft | 12 kts | 267° |
| 2026-05-06 15:06 | 25.78834 | -80.30793 | 21 ft | 16 kts | 267° |
| 2026-05-06 15:06 | 25.78829 | -80.30915 | 21 ft | 15 kts | 267° |
| 2026-05-06 15:07 | 25.78824 | -80.31030 | 21 ft | 14 kts | 267° |
| 2026-05-06 15:07 | 25.78819 | -80.31138 | 21 ft | 14 kts | 267° |
| 2026-05-06 15:07 | 25.78815 | -80.31238 | 21 ft | 13 kts | 267° |
| 2026-05-06 15:07 | 25.78811 | -80.31335 | 21 ft | 12 kts | 267° |
| 2026-05-06 15:08 | 25.78807 | -80.31427 | 21 ft | 10 kts | 262° |
| 2026-05-06 15:08 | 25.78761 | -80.31473 | 21 ft | 9 kts | 189° |
| 2026-05-06 15:08 | 25.78698 | -80.31473 | 21 ft | 8 kts | 177° |
| 2026-05-06 15:08 | 25.78647 | -80.31470 | 21 ft | 6 kts | 177° |
| 2026-05-06 15:09 | 25.78617 | -80.31445 | 21 ft | 6 kts | 101° |
| 2026-05-06 15:09 | 25.78618 | -80.31364 | 21 ft | 24 kts | 88° |
| 2026-05-06 15:09 | 25.78635 | -80.30954 | 21 ft | 84 kts | 87° |
| 2026-05-06 15:09 | 25.78671 | -80.30088 | 21 ft | 140 kts | 87° |
| 2026-05-06 15:10 | 25.78724 | -80.28820 | 26 ft | 186 kts | 88° |
| 2026-05-06 15:10 | 25.78769 | -80.27336 | 404 ft | 194 kts | 92° |
| 2026-05-06 15:10 | 25.78627 | -80.25842 | 1000 ft | 198 kts | 99° |
| 2026-05-06 15:10 | 25.78360 | -80.24333 | 1621 ft | 200 kts | 103° |
| 2026-05-06 15:11 | 25.78027 | -80.22831 | 2203 ft | 198 kts | 104° |
| 2026-05-06 15:11 | 25.77670 | -80.21347 | 2667 ft | 199 kts | 105° |
| 2026-05-06 15:11 | 25.77308 | -80.19870 | 3135 ft | 199 kts | 106° |
| 2026-05-06 15:11 | 25.76835 | -80.18401 | 3496 ft | 208 kts | 111° |
| 2026-05-06 15:12 | 25.76203 | -80.16896 | 3714 ft | 223 kts | 115° |
| 2026-05-06 15:12 | 25.75463 | -80.15331 | 3971 ft | 236 kts | 117° |
| 2026-05-06 15:12 | 25.74649 | -80.13689 | 4241 ft | 250 kts | 119° |
| 2026-05-06 15:12 | 25.73570 | -80.12120 | 4467 ft | 264 kts | 137° |
| 2026-05-06 15:13 | 25.71967 | -80.11057 | 4778 ft | 278 kts | 157° |
| 2026-05-06 15:13 | 25.70071 | -80.10504 | 5165 ft | 287 kts | 168° |
| 2026-05-06 15:13 | 25.68068 | -80.10233 | 5685 ft | 293 kts | 173° |
| 2026-05-06 15:13 | 25.66025 | -80.10015 | 6304 ft | 298 kts | 173° |
| 2026-05-06 15:14 | 25.63978 | -80.09631 | 6969 ft | 301 kts | 166° |
| 2026-05-06 15:14 | 25.61945 | -80.08936 | 7673 ft | 303 kts | 162° |
| 2026-05-06 15:14 | 25.59941 | -80.08202 | 8344 ft | 306 kts | 162° |
| 2026-05-06 15:14 | 25.57905 | -80.07478 | 8938 ft | 311 kts | 162° |
| 2026-05-06 15:15 | 25.55821 | -80.06746 | 9467 ft | 318 kts | 162° |
| 2026-05-06 15:15 | 25.53690 | -80.06002 | 9980 ft | 325 kts | 163° |
| 2026-05-06 15:15 | 25.51490 | -80.05246 | 10298 ft | 341 kts | 163° |
| 2026-05-06 15:15 | 25.49155 | -80.04466 | 10462 ft | 360 kts | 163° |
| 2026-05-06 15:16 | 25.46713 | -80.03633 | 10715 ft | 377 kts | 162° |
| 2026-05-06 15:16 | 25.44164 | -80.02728 | 10984 ft | 393 kts | 162° |
| 2026-05-06 15:16 | 25.41519 | -80.01789 | 11290 ft | 407 kts | 162° |
| 2026-05-06 15:16 | 25.38795 | -80.00801 | 11693 ft | 417 kts | 161° |
| 2026-05-06 15:17 | 25.36024 | -79.99784 | 12205 ft | 424 kts | 161° |
| 2026-05-06 15:17 | 25.33161 | -79.98768 | 12843 ft | 428 kts | 162° |
| 2026-05-06 15:17 | 25.30311 | -79.97782 | 13415 ft | 433 kts | 163° |
| 2026-05-06 15:17 | 25.27453 | -79.96699 | 13910 ft | 439 kts | 158° |
| 2026-05-06 15:18 | 25.24672 | -79.95225 | 14294 ft | 447 kts | 150° |
| 2026-05-06 15:18 | 25.22019 | -79.93418 | 14805 ft | 452 kts | 147° |
| 2026-05-06 15:18 | 25.19385 | -79.91520 | 15414 ft | 454 kts | 146° |
| 2026-05-06 15:18 | 25.16755 | -79.89576 | 15963 ft | 458 kts | 145° |
| 2026-05-06 15:19 | 25.14099 | -79.87620 | 16482 ft | 462 kts | 146° |
| 2026-05-06 15:19 | 25.11396 | -79.85681 | 16940 ft | 468 kts | 146° |
| 2026-05-06 15:19 | 25.08639 | -79.83734 | 17365 ft | 474 kts | 146° |
| 2026-05-06 15:19 | 25.05860 | -79.81769 | 17847 ft | 477 kts | 146° |
| 2026-05-06 15:20 | 25.03055 | -79.79800 | 18395 ft | 479 kts | 147° |
| 2026-05-06 15:20 | 25.00240 | -79.77831 | 18954 ft | 481 kts | 147° |
| 2026-05-06 15:20 | 24.97372 | -79.75832 | 19506 ft | 483 kts | 147° |
| 2026-05-06 15:20 | 24.94522 | -79.73840 | 19879 ft | 489 kts | 147° |
| 2026-05-06 15:21 | 24.91644 | -79.71817 | 20257 ft | 494 kts | 147° |
| 2026-05-06 15:21 | 24.88756 | -79.69753 | 20660 ft | 498 kts | 146° |
| 2026-05-06 15:21 | 24.85853 | -79.67666 | 21120 ft | 500 kts | 146° |
| 2026-05-06 15:21 | 24.82933 | -79.65603 | 21659 ft | 501 kts | 147° |
| 2026-05-06 15:22 | 24.79992 | -79.63541 | 22132 ft | 503 kts | 147° |
| 2026-05-06 15:22 | 24.77033 | -79.61461 | 22488 ft | 507 kts | 147° |
| 2026-05-06 15:22 | 24.74057 | -79.59363 | 22863 ft | 511 kts | 147° |
| 2026-05-06 15:22 | 24.71062 | -79.57245 | 23237 ft | 515 kts | 147° |
| 2026-05-06 15:23 | 24.68035 | -79.55113 | 23646 ft | 518 kts | 147° |
| 2026-05-06 15:23 | 24.64986 | -79.52994 | 24021 ft | 522 kts | 147° |
| 2026-05-06 15:23 | 24.61909 | -79.50846 | 24384 ft | 526 kts | 147° |
| 2026-05-06 15:23 | 24.58779 | -79.48651 | 24809 ft | 527 kts | 147° |
| 2026-05-06 15:24 | 24.55690 | -79.46466 | 25115 ft | 532 kts | 147° |
| 2026-05-06 15:24 | 24.52576 | -79.44274 | 25565 ft | 533 kts | 147° |
| 2026-05-06 15:24 | 24.49451 | -79.42084 | 25965 ft | 535 kts | 147° |
| 2026-05-06 15:24 | 24.46303 | -79.39882 | 26255 ft | 539 kts | 147° |
| 2026-05-06 15:25 | 24.43137 | -79.37669 | 26595 ft | 542 kts | 147° |
| 2026-05-06 15:25 | 24.39960 | -79.35450 | 26950 ft | 544 kts | 147° |
| 2026-05-06 15:25 | 24.36760 | -79.33216 | 27248 ft | 547 kts | 147° |
| 2026-05-06 15:25 | 24.33551 | -79.30977 | 27559 ft | 549 kts | 147° |
| 2026-05-06 15:26 | 24.30335 | -79.28733 | 27996 ft | 549 kts | 147° |
| 2026-05-06 15:26 | 24.27143 | -79.26454 | 28426 ft | 548 kts | 146° |
| 2026-05-06 15:26 | 24.23964 | -79.24149 | 28860 ft | 547 kts | 146° |
| 2026-05-06 15:26 | 24.20787 | -79.21860 | 29283 ft | 547 kts | 146° |
| 2026-05-06 15:27 | 24.17611 | -79.19579 | 29714 ft | 547 kts | 146° |
| 2026-05-06 15:27 | 24.14396 | -79.17276 | 30160 ft | 546 kts | 146° |
| 2026-05-06 15:27 | 24.11224 | -79.15005 | 30628 ft | 545 kts | 146° |
| 2026-05-06 15:27 | 24.08058 | -79.12740 | 31108 ft | 543 kts | 146° |
| 2026-05-06 15:28 | 24.04910 | -79.10488 | 31627 ft | 541 kts | 146° |
| 2026-05-06 15:28 | 24.01676 | -79.08392 | 31887 ft | 542 kts | 155° |
| 2026-05-06 15:28 | 23.98150 | -79.06954 | 32147 ft | 541 kts | 162° |
| 2026-05-06 15:28 | 23.94532 | -79.05867 | 32397 ft | 539 kts | 167° |
| 2026-05-06 15:29 | 23.90879 | -79.05019 | 32647 ft | 538 kts | 169° |
| 2026-05-06 15:29 | 23.87199 | -79.04314 | 32897 ft | 537 kts | 171° |
| 2026-05-06 15:29 | 23.83516 | -79.03647 | 33045 ft | 537 kts | 171° |
| 2026-05-06 15:30 | 23.76179 | -79.02250 | 33116 ft | 535 kts | 171° |
| 2026-05-06 15:30 | 23.68860 | -79.00816 | 33119 ft | 535 kts | 171° |
| 2026-05-06 15:31 | 23.61497 | -78.99361 | 33118 ft | 535 kts | 171° |
| 2026-05-06 15:31 | 23.54183 | -78.97916 | 33118 ft | 535 kts | 171° |
| 2026-05-06 15:32 | 23.43215 | -78.95751 | 33117 ft | 535 kts | 171° |
| 2026-05-06 15:32 | 23.35907 | -78.94314 | 33117 ft | 534 kts | 171° |
| 2026-05-06 15:33 | 23.28604 | -78.92880 | 33117 ft | 534 kts | 170° |
| 2026-05-06 15:33 | 23.21305 | -78.91159 | 33105 ft | 534 kts | 159° |
| 2026-05-06 15:34 | 23.14822 | -78.87272 | 33118 ft | 534 kts | 146° |
| 2026-05-06 15:34 | 23.08871 | -78.82475 | 33116 ft | 532 kts | 140° |
| 2026-05-06 15:35 | 23.03057 | -78.77520 | 33116 ft | 532 kts | 141° |
| 2026-05-06 15:35 | 22.97213 | -78.72629 | 33116 ft | 532 kts | 141° |
| 2026-05-06 15:36 | 22.91342 | -78.67770 | 33115 ft | 531 kts | 141° |
| 2026-05-06 15:36 | 22.85472 | -78.62922 | 33116 ft | 531 kts | 141° |
| 2026-05-06 15:37 | 22.79567 | -78.58051 | 33115 ft | 530 kts | 141° |
| 2026-05-06 15:37 | 22.73727 | -78.53193 | 33115 ft | 530 kts | 141° |
| 2026-05-06 15:38 | 22.67899 | -78.48338 | 33115 ft | 529 kts | 141° |
| 2026-05-06 15:38 | 22.62067 | -78.43492 | 33115 ft | 529 kts | 141° |
| 2026-05-06 15:39 | 22.56237 | -78.38654 | 33115 ft | 528 kts | 141° |
| 2026-05-06 15:39 | 22.50425 | -78.33829 | 33116 ft | 528 kts | 141° |
| 2026-05-06 15:40 | 22.45561 | -78.29778 | 33110 ft | 527 kts | 141° |
| 2026-05-06 15:40 | 22.39760 | -78.24951 | 33110 ft | 527 kts | 141° |
| 2026-05-06 15:41 | 22.33963 | -78.20133 | 33110 ft | 526 kts | 141° |
| 2026-05-06 15:41 | 22.28171 | -78.15324 | 33110 ft | 526 kts | 141° |
| 2026-05-06 15:42 | 22.22347 | -78.10479 | 33110 ft | 526 kts | 141° |
| 2026-05-06 15:42 | 22.16573 | -78.05676 | 33111 ft | 525 kts | 141° |
| 2026-05-06 15:43 | 22.10795 | -78.00868 | 33113 ft | 525 kts | 141° |
| 2026-05-06 15:43 | 22.05012 | -77.96081 | 33113 ft | 525 kts | 141° |
| 2026-05-06 15:44 | 21.99225 | -77.91301 | 33113 ft | 525 kts | 141° |
| 2026-05-06 15:44 | 21.93442 | -77.86526 | 33113 ft | 525 kts | 141° |
| 2026-05-06 15:45 | 21.87648 | -77.81753 | 33113 ft | 525 kts | 141° |
| 2026-05-06 15:45 | 21.81801 | -77.76981 | 33112 ft | 525 kts | 141° |
| 2026-05-06 15:46 | 21.75983 | -77.72233 | 33112 ft | 525 kts | 141° |
| 2026-05-06 15:46 | 21.70176 | -77.67496 | 33112 ft | 525 kts | 141° |
| 2026-05-06 15:47 | 21.64368 | -77.62757 | 33112 ft | 525 kts | 141° |
| 2026-05-06 15:47 | 21.58568 | -77.58000 | 33112 ft | 526 kts | 141° |
| 2026-05-06 15:48 | 21.52709 | -77.53231 | 33112 ft | 526 kts | 141° |
| 2026-05-06 15:48 | 21.46886 | -77.48499 | 33112 ft | 526 kts | 141° |
| 2026-05-06 15:49 | 21.41064 | -77.43772 | 33112 ft | 526 kts | 141° |
| 2026-05-06 15:49 | 21.35236 | -77.39049 | 33111 ft | 526 kts | 141° |
| 2026-05-06 15:50 | 21.29405 | -77.34340 | 33111 ft | 525 kts | 141° |
| 2026-05-06 15:50 | 21.23583 | -77.29641 | 33111 ft | 524 kts | 141° |
| 2026-05-06 15:51 | 21.17723 | -77.24913 | 33111 ft | 524 kts | 141° |
| 2026-05-06 15:51 | 21.11917 | -77.20203 | 33110 ft | 525 kts | 141° |
| 2026-05-06 15:52 | 21.06093 | -77.15509 | 33111 ft | 525 kts | 141° |
| 2026-05-06 15:52 | 21.00260 | -77.10818 | 33110 ft | 526 kts | 141° |
| 2026-05-06 15:53 | 20.94424 | -77.06129 | 33110 ft | 526 kts | 141° |
| 2026-05-06 15:53 | 20.88583 | -77.01438 | 33110 ft | 525 kts | 142° |
| 2026-05-06 15:54 | 20.82746 | -76.96761 | 33110 ft | 525 kts | 142° |
| 2026-05-06 15:54 | 20.76860 | -76.92048 | 33110 ft | 526 kts | 142° |
| 2026-05-06 15:55 | 20.71017 | -76.87372 | 33110 ft | 526 kts | 142° |
| 2026-05-06 15:55 | 20.65186 | -76.82692 | 33110 ft | 526 kts | 141° |
| 2026-05-06 15:56 | 20.59336 | -76.78000 | 33110 ft | 527 kts | 141° |
| 2026-05-06 15:56 | 20.53481 | -76.73327 | 33110 ft | 527 kts | 141° |
| 2026-05-06 15:57 | 20.47619 | -76.68654 | 33111 ft | 527 kts | 141° |
| 2026-05-06 15:57 | 20.41704 | -76.63942 | 33110 ft | 528 kts | 141° |
| 2026-05-06 15:58 | 20.35837 | -76.59261 | 33110 ft | 528 kts | 141° |
| 2026-05-06 15:58 | 20.29958 | -76.54575 | 33110 ft | 529 kts | 141° |
| 2026-05-06 15:59 | 20.24078 | -76.49893 | 33110 ft | 529 kts | 141° |
| 2026-05-06 15:59 | 20.18188 | -76.45207 | 33110 ft | 529 kts | 141° |
| 2026-05-06 16:00 | 20.12301 | -76.40519 | 33110 ft | 530 kts | 141° |
| 2026-05-06 16:00 | 20.06401 | -76.35812 | 33110 ft | 531 kts | 141° |
| 2026-05-06 16:01 | 20.00455 | -76.31085 | 33110 ft | 531 kts | 141° |
| 2026-05-06 16:01 | 19.94550 | -76.26397 | 33111 ft | 530 kts | 141° |
| 2026-05-06 16:02 | 19.88649 | -76.21718 | 33110 ft | 530 kts | 141° |
| 2026-05-06 16:02 | 19.82753 | -76.17034 | 33110 ft | 530 kts | 141° |
| 2026-05-06 16:03 | 19.76846 | -76.12359 | 33111 ft | 530 kts | 141° |
| 2026-05-06 16:03 | 19.70935 | -76.07690 | 33110 ft | 530 kts | 141° |
| 2026-05-06 16:04 | 19.65022 | -76.03023 | 33109 ft | 530 kts | 141° |
| 2026-05-06 16:04 | 19.59080 | -75.98334 | 33110 ft | 530 kts | 141° |
| 2026-05-06 16:05 | 19.53158 | -75.93676 | 33108 ft | 531 kts | 141° |
| 2026-05-06 16:05 | 19.47222 | -75.89011 | 33108 ft | 532 kts | 141° |
| 2026-05-06 16:06 | 19.41288 | -75.84350 | 33107 ft | 532 kts | 141° |
| 2026-05-06 16:06 | 19.35356 | -75.79695 | 33110 ft | 531 kts | 141° |
| 2026-05-06 16:07 | 19.29439 | -75.75038 | 33110 ft | 531 kts | 141° |
| 2026-05-06 16:07 | 19.23479 | -75.70353 | 33109 ft | 531 kts | 141° |
| 2026-05-06 16:08 | 19.17552 | -75.65706 | 33108 ft | 531 kts | 141° |
| 2026-05-06 16:08 | 19.11626 | -75.61065 | 33107 ft | 531 kts | 141° |
| 2026-05-06 16:09 | 19.05696 | -75.56425 | 33107 ft | 531 kts | 141° |
| 2026-05-06 16:09 | 18.99758 | -75.51783 | 33106 ft | 531 kts | 141° |
| 2026-05-06 16:10 | 18.93833 | -75.47156 | 33105 ft | 531 kts | 141° |
| 2026-05-06 16:10 | 18.87902 | -75.42528 | 33103 ft | 531 kts | 141° |
| 2026-05-06 16:11 | 18.81935 | -75.37876 | 33102 ft | 531 kts | 141° |
| 2026-05-06 16:11 | 18.76010 | -75.33249 | 33102 ft | 531 kts | 141° |
| 2026-05-06 16:12 | 18.70073 | -75.28632 | 33101 ft | 531 kts | 141° |
| 2026-05-06 16:12 | 18.64143 | -75.24027 | 33099 ft | 530 kts | 141° |
| 2026-05-06 16:13 | 18.58215 | -75.19426 | 33098 ft | 530 kts | 141° |
| 2026-05-06 16:13 | 18.52224 | -75.14912 | 33093 ft | 531 kts | 144° |
| 2026-05-06 16:14 | 18.46025 | -75.10600 | 33092 ft | 531 kts | 144° |
| 2026-05-06 16:14 | 18.39874 | -75.06294 | 33091 ft | 532 kts | 144° |
| 2026-05-06 16:15 | 18.33727 | -75.01967 | 33090 ft | 532 kts | 144° |
| 2026-05-06 16:15 | 18.27593 | -74.97645 | 33090 ft | 532 kts | 144° |
| 2026-05-06 16:16 | 18.21464 | -74.93304 | 33085 ft | 532 kts | 143° |
| 2026-05-06 16:16 | 18.15334 | -74.88976 | 33083 ft | 532 kts | 144° |
| 2026-05-06 16:17 | 18.09197 | -74.84649 | 33082 ft | 532 kts | 143° |
| 2026-05-06 16:17 | 18.03012 | -74.80294 | 33081 ft | 533 kts | 143° |
| 2026-05-06 16:18 | 17.96872 | -74.75974 | 33079 ft | 531 kts | 143° |
| 2026-05-06 16:18 | 17.90749 | -74.71670 | 33084 ft | 531 kts | 143° |
| 2026-05-06 16:19 | 17.84608 | -74.67357 | 33078 ft | 532 kts | 143° |
| 2026-05-06 16:19 | 17.78473 | -74.63052 | 33053 ft | 532 kts | 143° |
| 2026-05-06 16:20 | 17.72327 | -74.58743 | 33053 ft | 532 kts | 143° |
| 2026-05-06 16:20 | 17.66140 | -74.54408 | 33053 ft | 532 kts | 143° |
| 2026-05-06 16:21 | 17.59988 | -74.50102 | 33053 ft | 532 kts | 143° |
| 2026-05-06 16:21 | 17.53836 | -74.45800 | 33053 ft | 532 kts | 143° |
| 2026-05-06 16:22 | 17.47684 | -74.41501 | 33053 ft | 532 kts | 143° |
| 2026-05-06 16:22 | 17.41532 | -74.37206 | 33052 ft | 532 kts | 143° |
| 2026-05-06 16:23 | 17.35384 | -74.32917 | 33052 ft | 532 kts | 143° |
| 2026-05-06 16:23 | 17.29227 | -74.28624 | 33052 ft | 532 kts | 143° |
| 2026-05-06 16:24 | 17.23033 | -74.24310 | 33051 ft | 531 kts | 143° |
| 2026-05-06 16:24 | 17.16893 | -74.20038 | 33050 ft | 531 kts | 143° |
| 2026-05-06 16:25 | 17.10752 | -74.15767 | 33050 ft | 531 kts | 143° |
| 2026-05-06 16:25 | 17.04611 | -74.11501 | 33049 ft | 531 kts | 143° |
| 2026-05-06 16:26 | 16.98473 | -74.07239 | 33049 ft | 530 kts | 143° |
| 2026-05-06 16:26 | 16.92298 | -74.02955 | 33048 ft | 530 kts | 143° |
| 2026-05-06 16:27 | 16.86169 | -73.98706 | 33046 ft | 530 kts | 144° |
| 2026-05-06 16:27 | 16.80027 | -73.94453 | 33047 ft | 532 kts | 144° |
| 2026-05-06 16:28 | 16.73869 | -73.90191 | 33045 ft | 531 kts | 144° |
| 2026-05-06 16:28 | 16.67728 | -73.85944 | 33044 ft | 530 kts | 144° |
| 2026-05-06 16:29 | 16.61592 | -73.81699 | 33044 ft | 530 kts | 144° |
| 2026-05-06 16:29 | 16.55453 | -73.77455 | 33042 ft | 530 kts | 144° |
| 2026-05-06 16:30 | 16.51348 | -73.74625 | 33041 ft | 530 kts | 144° |
| 2026-05-06 16:30 | 16.43133 | -73.68964 | 33040 ft | 530 kts | 144° |
| 2026-05-06 16:31 | 16.36988 | -73.64734 | 33039 ft | 530 kts | 144° |
| 2026-05-06 16:31 | 16.30858 | -73.60491 | 33037 ft | 530 kts | 143° |
| 2026-05-06 16:32 | 16.24733 | -73.56248 | 33036 ft | 530 kts | 143° |
| 2026-05-06 16:32 | 16.18605 | -73.52006 | 33035 ft | 530 kts | 144° |
| 2026-05-06 16:33 | 16.13476 | -73.48458 | 33034 ft | 530 kts | 144° |
| 2026-05-06 16:34 | 16.04292 | -73.42099 | 33031 ft | 529 kts | 144° |
| 2026-05-06 16:34 | 15.98179 | -73.37867 | 33031 ft | 529 kts | 144° |
| 2026-05-06 16:35 | 15.92069 | -73.33645 | 33028 ft | 527 kts | 144° |
| 2026-05-06 16:35 | 15.84934 | -73.28721 | 33026 ft | 528 kts | 144° |
| 2026-05-06 16:36 | 15.79828 | -73.25193 | 33025 ft | 527 kts | 144° |
| 2026-05-06 16:36 | 15.73722 | -73.20982 | 33022 ft | 527 kts | 144° |
| 2026-05-06 16:37 | 15.67623 | -73.16785 | 33021 ft | 527 kts | 144° |
| 2026-05-06 16:37 | 15.61528 | -73.12593 | 33019 ft | 526 kts | 144° |
| 2026-05-06 16:38 | 15.55429 | -73.08400 | 33017 ft | 526 kts | 144° |
| 2026-05-06 16:38 | 15.49310 | -73.04180 | 33015 ft | 526 kts | 144° |
| 2026-05-06 16:39 | 15.43222 | -72.99990 | 33013 ft | 526 kts | 144° |
| 2026-05-06 16:39 | 15.37144 | -72.95810 | 33011 ft | 525 kts | 144° |
| 2026-05-06 16:40 | 15.31066 | -72.91631 | 33009 ft | 525 kts | 145° |
| 2026-05-06 16:40 | 15.24994 | -72.87464 | 33025 ft | 525 kts | 145° |
| 2026-05-06 16:41 | 15.18918 | -72.83296 | 33023 ft | 524 kts | 145° |
| 2026-05-06 16:41 | 15.12805 | -72.79105 | 33022 ft | 524 kts | 145° |
| 2026-05-06 16:42 | 15.06742 | -72.74950 | 33020 ft | 523 kts | 145° |
| 2026-05-06 16:42 | 15.00693 | -72.70794 | 33026 ft | 523 kts | 145° |
| 2026-05-06 16:43 | 14.94628 | -72.66636 | 33026 ft | 523 kts | 145° |
| 2026-05-06 16:43 | 14.88567 | -72.62486 | 33025 ft | 523 kts | 145° |
| 2026-05-06 16:44 | 14.82515 | -72.58339 | 33023 ft | 522 kts | 145° |
| 2026-05-06 16:44 | 14.76429 | -72.54181 | 33021 ft | 522 kts | 145° |
| 2026-05-06 16:45 | 14.70383 | -72.50054 | 33020 ft | 521 kts | 145° |
| 2026-05-06 16:45 | 14.64347 | -72.45936 | 33019 ft | 521 kts | 145° |
| 2026-05-06 16:46 | 14.58313 | -72.41804 | 33017 ft | 520 kts | 145° |
| 2026-05-06 16:46 | 14.52298 | -72.37679 | 33016 ft | 520 kts | 145° |
| 2026-05-06 16:46 | 14.49281 | -72.35613 | 33143 ft | 522 kts | 145° |
| 2026-05-06 16:47 | 14.46216 | -72.33516 | 33513 ft | 521 kts | 145° |
| 2026-05-06 16:47 | 14.43214 | -72.31463 | 33977 ft | 518 kts | 146° |
| 2026-05-06 16:47 | 14.40215 | -72.29411 | 34342 ft | 517 kts | 146° |
| 2026-05-06 16:47 | 14.37225 | -72.27367 | 34694 ft | 516 kts | 146° |
| 2026-05-06 16:48 | 14.34235 | -72.25323 | 34968 ft | 516 kts | 146° |
| 2026-05-06 16:48 | 14.28251 | -72.21275 | 35016 ft | 515 kts | 147° |
| 2026-05-06 16:49 | 14.22256 | -72.17245 | 35016 ft | 515 kts | 147° |
| 2026-05-06 16:49 | 14.16268 | -72.13216 | 35014 ft | 514 kts | 147° |
| 2026-05-06 16:50 | 14.10291 | -72.09182 | 35014 ft | 514 kts | 147° |
| 2026-05-06 16:50 | 14.04276 | -72.05135 | 35012 ft | 514 kts | 147° |
| 2026-05-06 16:51 | 13.98296 | -72.01118 | 35011 ft | 514 kts | 147° |
| 2026-05-06 16:51 | 13.92314 | -71.97101 | 35010 ft | 514 kts | 147° |
| 2026-05-06 16:52 | 13.86338 | -71.93086 | 35009 ft | 514 kts | 147° |
| 2026-05-06 16:52 | 13.80360 | -71.89057 | 35007 ft | 514 kts | 147° |
| 2026-05-06 16:53 | 13.74377 | -71.85026 | 35007 ft | 515 kts | 147° |
| 2026-05-06 16:53 | 13.68351 | -71.80968 | 35006 ft | 515 kts | 147° |
| 2026-05-06 16:54 | 13.62367 | -71.76940 | 35005 ft | 514 kts | 147° |
| 2026-05-06 16:54 | 13.56397 | -71.72917 | 35005 ft | 514 kts | 147° |
| 2026-05-06 16:55 | 13.50417 | -71.68888 | 35004 ft | 514 kts | 147° |
| 2026-05-06 16:55 | 13.44440 | -71.64868 | 35004 ft | 514 kts | 147° |
| 2026-05-06 16:56 | 13.38459 | -71.60848 | 35004 ft | 514 kts | 147° |
| 2026-05-06 16:56 | 13.32445 | -71.56802 | 35004 ft | 514 kts | 147° |
| 2026-05-06 16:57 | 13.26468 | -71.52792 | 35004 ft | 515 kts | 147° |
| 2026-05-06 16:57 | 13.20475 | -71.48774 | 35004 ft | 515 kts | 147° |
| 2026-05-06 16:58 | 13.14485 | -71.44761 | 35004 ft | 515 kts | 147° |
| 2026-05-06 16:58 | 13.08502 | -71.40753 | 35005 ft | 515 kts | 148° |
| 2026-05-06 16:59 | 13.02512 | -71.36745 | 35005 ft | 515 kts | 148° |
| 2026-05-06 16:59 | 12.96487 | -71.32714 | 35005 ft | 514 kts | 148° |
| 2026-05-06 17:00 | 12.90506 | -71.28715 | 35006 ft | 514 kts | 148° |
| 2026-05-06 17:00 | 12.84524 | -71.24717 | 35007 ft | 514 kts | 148° |
| 2026-05-06 17:01 | 12.78551 | -71.20717 | 35007 ft | 514 kts | 148° |
| 2026-05-06 17:01 | 12.72580 | -71.16718 | 35008 ft | 514 kts | 148° |
| 2026-05-06 17:02 | 12.66599 | -71.12725 | 35009 ft | 514 kts | 148° |
| 2026-05-06 17:02 | 12.60581 | -71.08711 | 35011 ft | 513 kts | 148° |
| 2026-05-06 17:03 | 12.54610 | -71.04731 | 35022 ft | 513 kts | 148° |
| 2026-05-06 17:03 | 12.48643 | -71.00746 | 35018 ft | 513 kts | 147° |
| 2026-05-06 17:04 | 12.42756 | -70.96622 | 34999 ft | 513 kts | 147° |
| 2026-05-06 17:04 | 12.36873 | -70.92516 | 34997 ft | 513 kts | 147° |
| 2026-05-06 17:05 | 12.30982 | -70.88416 | 34996 ft | 513 kts | 147° |
| 2026-05-06 17:05 | 12.25054 | -70.84293 | 34986 ft | 513 kts | 147° |
| 2026-05-06 17:06 | 12.19169 | -70.80200 | 34979 ft | 512 kts | 147° |
| 2026-05-06 17:06 | 12.13279 | -70.76109 | 34975 ft | 512 kts | 147° |
| 2026-05-06 17:07 | 12.07400 | -70.72026 | 34972 ft | 512 kts | 147° |
| 2026-05-06 17:07 | 12.01518 | -70.67942 | 34968 ft | 512 kts | 147° |
| 2026-05-06 17:08 | 11.95642 | -70.63864 | 34964 ft | 511 kts | 147° |
| 2026-05-06 17:08 | 11.89742 | -70.59756 | 34959 ft | 510 kts | 147° |
| 2026-05-06 17:09 | 11.83881 | -70.55689 | 34955 ft | 510 kts | 147° |
| 2026-05-06 17:09 | 11.78018 | -70.51627 | 34951 ft | 510 kts | 147° |
| 2026-05-06 17:10 | 11.72155 | -70.47566 | 34941 ft | 510 kts | 147° |
| 2026-05-06 17:10 | 11.66288 | -70.43500 | 34941 ft | 510 kts | 147° |
| 2026-05-06 17:11 | 11.60433 | -70.39425 | 34940 ft | 510 kts | 147° |
| 2026-05-06 17:11 | 11.54517 | -70.35344 | 34941 ft | 510 kts | 147° |
| 2026-05-06 17:12 | 11.48644 | -70.31296 | 34942 ft | 510 kts | 147° |
| 2026-05-06 17:12 | 11.42774 | -70.27249 | 34943 ft | 510 kts | 147° |
| 2026-05-06 17:13 | 11.36914 | -70.23211 | 34947 ft | 509 kts | 147° |
| 2026-05-06 17:13 | 11.31057 | -70.19167 | 34952 ft | 510 kts | 147° |
| 2026-05-06 17:14 | 11.25190 | -70.15118 | 34957 ft | 510 kts | 147° |
| 2026-05-06 17:14 | 11.19285 | -70.11053 | 34965 ft | 509 kts | 147° |
| 2026-05-06 17:15 | 11.13420 | -70.07018 | 34968 ft | 509 kts | 147° |
| 2026-05-06 17:15 | 11.07563 | -70.02992 | 34973 ft | 509 kts | 147° |
| 2026-05-06 17:16 | 11.01695 | -69.98956 | 34977 ft | 509 kts | 147° |
| 2026-05-06 17:16 | 10.95851 | -69.94939 | 34981 ft | 508 kts | 147° |
| 2026-05-06 17:17 | 10.90009 | -69.90913 | 34988 ft | 508 kts | 147° |
| 2026-05-06 17:17 | 10.84128 | -69.86872 | 34995 ft | 508 kts | 147° |
| 2026-05-06 17:18 | 10.78288 | -69.82862 | 35004 ft | 507 kts | 147° |
| 2026-05-06 17:18 | 10.72447 | -69.78853 | 35015 ft | 507 kts | 147° |
| 2026-05-06 17:19 | 10.66601 | -69.74845 | 35027 ft | 507 kts | 147° |
| 2026-05-06 17:19 | 10.60754 | -69.70855 | 35042 ft | 507 kts | 147° |
| 2026-05-06 17:20 | 10.54884 | -69.66831 | 35058 ft | 506 kts | 147° |
| 2026-05-06 17:20 | 10.49053 | -69.62836 | 35088 ft | 506 kts | 147° |
| 2026-05-06 17:21 | 10.43224 | -69.58848 | 35101 ft | 506 kts | 147° |
| 2026-05-06 17:21 | 10.37389 | -69.54855 | 35113 ft | 506 kts | 147° |
| 2026-05-06 17:22 | 10.31553 | -69.50866 | 35123 ft | 506 kts | 147° |
| 2026-05-06 17:22 | 10.25720 | -69.46875 | 35130 ft | 506 kts | 147° |
| 2026-05-06 17:23 | 10.19889 | -69.42894 | 35135 ft | 506 kts | 147° |
| 2026-05-06 17:23 | 10.14016 | -69.38886 | 35139 ft | 506 kts | 147° |
| 2026-05-06 17:24 | 10.09167 | -69.35577 | 35140 ft | 506 kts | 147° |
| 2026-05-06 17:24 | 10.03334 | -69.31598 | 35141 ft | 505 kts | 147° |
| 2026-05-06 17:25 | 9.97473 | -69.27606 | 35141 ft | 505 kts | 147° |
| 2026-05-06 17:25 | 9.91655 | -69.23642 | 35140 ft | 504 kts | 146° |
| 2026-05-06 17:26 | 9.85851 | -69.19678 | 35139 ft | 504 kts | 146° |
| 2026-05-06 17:26 | 9.80040 | -69.15720 | 35138 ft | 504 kts | 147° |
| 2026-05-06 17:27 | 9.74193 | -69.11740 | 35135 ft | 503 kts | 146° |
| 2026-05-06 17:27 | 9.68391 | -69.07792 | 35133 ft | 503 kts | 146° |
| 2026-05-06 17:28 | 9.62594 | -69.03847 | 35130 ft | 503 kts | 147° |
| 2026-05-06 17:28 | 9.56791 | -68.99907 | 35127 ft | 503 kts | 147° |
| 2026-05-06 17:29 | 9.50993 | -68.95968 | 35124 ft | 503 kts | 147° |
| 2026-05-06 17:29 | 9.45153 | -68.92001 | 35121 ft | 503 kts | 147° |
| 2026-05-06 17:30 | 9.39358 | -68.88065 | 35118 ft | 503 kts | 147° |
| 2026-05-06 17:30 | 9.33560 | -68.84125 | 35115 ft | 503 kts | 146° |
| 2026-05-06 17:31 | 9.27770 | -68.80185 | 35112 ft | 502 kts | 146° |
| 2026-05-06 17:31 | 9.21980 | -68.76256 | 35110 ft | 502 kts | 147° |
| 2026-05-06 17:32 | 9.16197 | -68.72336 | 35108 ft | 502 kts | 147° |
| 2026-05-06 17:32 | 9.10406 | -68.68410 | 35106 ft | 502 kts | 146° |
| 2026-05-06 17:33 | 9.04583 | -68.64463 | 35103 ft | 501 kts | 146° |
| 2026-05-06 17:33 | 8.98798 | -68.60549 | 35102 ft | 501 kts | 146° |
| 2026-05-06 17:34 | 8.93018 | -68.56640 | 35100 ft | 501 kts | 146° |
| 2026-05-06 17:34 | 8.87239 | -68.52730 | 35098 ft | 500 kts | 146° |
| 2026-05-06 17:35 | 8.81466 | -68.48826 | 35096 ft | 500 kts | 146° |
| 2026-05-06 17:35 | 8.75693 | -68.44919 | 35095 ft | 500 kts | 146° |
| 2026-05-06 17:36 | 8.67011 | -68.39044 | 35092 ft | 499 kts | 146° |
| 2026-05-06 17:36 | 8.61250 | -68.35150 | 35090 ft | 499 kts | 146° |
| 2026-05-06 17:37 | 8.55493 | -68.31260 | 35088 ft | 498 kts | 146° |
| 2026-05-06 17:37 | 8.49737 | -68.27373 | 35087 ft | 498 kts | 146° |
| 2026-05-06 17:38 | 8.43986 | -68.23491 | 35085 ft | 497 kts | 146° |
| 2026-05-06 17:38 | 8.38241 | -68.19613 | 35083 ft | 497 kts | 146° |
| 2026-05-06 17:39 | 8.32457 | -68.15711 | 35081 ft | 497 kts | 146° |
| 2026-05-06 17:39 | 8.26724 | -68.11843 | 35079 ft | 496 kts | 146° |
| 2026-05-06 17:40 | 8.20990 | -68.07975 | 35077 ft | 496 kts | 146° |
| 2026-05-06 17:40 | 8.15251 | -68.04109 | 35075 ft | 497 kts | 146° |
| 2026-05-06 17:41 | 8.09512 | -68.00244 | 35073 ft | 497 kts | 146° |
| 2026-05-06 17:41 | 8.03777 | -67.96384 | 35071 ft | 497 kts | 146° |
| 2026-05-06 17:42 | 7.98001 | -67.92497 | 35069 ft | 496 kts | 146° |
| 2026-05-06 17:42 | 7.92261 | -67.88639 | 35043 ft | 496 kts | 146° |
| 2026-05-06 17:43 | 7.86527 | -67.84785 | 35038 ft | 496 kts | 146° |
| 2026-05-06 17:43 | 7.80794 | -67.80933 | 35037 ft | 496 kts | 146° |
| 2026-05-06 17:44 | 7.75059 | -67.77080 | 35037 ft | 496 kts | 146° |
| 2026-05-06 17:44 | 7.69328 | -67.73225 | 35036 ft | 497 kts | 146° |
| 2026-05-06 17:45 | 7.63586 | -67.69366 | 35035 ft | 497 kts | 146° |
| 2026-05-06 17:45 | 7.57807 | -67.65483 | 35034 ft | 496 kts | 146° |
| 2026-05-06 17:46 | 7.52083 | -67.61637 | 35033 ft | 496 kts | 146° |
| 2026-05-06 17:46 | 7.46351 | -67.57792 | 35033 ft | 496 kts | 146° |
| 2026-05-06 17:47 | 7.40619 | -67.53947 | 35031 ft | 495 kts | 146° |
| 2026-05-06 17:47 | 7.34894 | -67.50109 | 35031 ft | 495 kts | 146° |
| 2026-05-06 17:48 | 7.29168 | -67.46273 | 35029 ft | 495 kts | 147° |
| 2026-05-06 17:48 | 7.23412 | -67.42424 | 35028 ft | 494 kts | 146° |
| 2026-05-06 17:49 | 7.17694 | -67.38598 | 35027 ft | 494 kts | 147° |
| 2026-05-06 17:49 | 7.11976 | -67.34775 | 35027 ft | 494 kts | 147° |
| 2026-05-06 17:50 | 7.06258 | -67.30954 | 35027 ft | 494 kts | 147° |
| 2026-05-06 17:50 | 7.00547 | -67.27139 | 35026 ft | 494 kts | 147° |
| 2026-05-06 17:51 | 6.94834 | -67.23323 | 35025 ft | 494 kts | 147° |
| 2026-05-06 17:51 | 6.89115 | -67.19510 | 35026 ft | 494 kts | 147° |
| 2026-05-06 17:52 | 6.83362 | -67.15673 | 35026 ft | 494 kts | 147° |
| 2026-05-06 17:52 | 6.77650 | -67.11858 | 35025 ft | 493 kts | 147° |
| 2026-05-06 17:53 | 6.71938 | -67.08048 | 35025 ft | 493 kts | 147° |
| 2026-05-06 17:53 | 6.66231 | -67.04244 | 35025 ft | 493 kts | 147° |
| 2026-05-06 17:54 | 6.60529 | -67.00445 | 35024 ft | 493 kts | 147° |
| 2026-05-06 17:54 | 6.54553 | -66.97128 | 35026 ft | 492 kts | 159° |
| 2026-05-06 17:55 | 6.47995 | -66.95035 | 35025 ft | 492 kts | 165° |
| 2026-05-06 17:55 | 6.41364 | -66.93344 | 35024 ft | 492 kts | 166° |
| 2026-05-06 17:56 | 6.34750 | -66.91646 | 35024 ft | 491 kts | 166° |
| 2026-05-06 17:56 | 6.28144 | -66.89923 | 35024 ft | 491 kts | 166° |
| 2026-05-06 17:57 | 6.21547 | -66.88191 | 35024 ft | 491 kts | 165° |
| 2026-05-06 17:57 | 6.14947 | -66.86453 | 35025 ft | 491 kts | 165° |
| 2026-05-06 17:58 | 6.08311 | -66.84706 | 35025 ft | 491 kts | 165° |
| 2026-05-06 17:58 | 6.01714 | -66.82969 | 35025 ft | 491 kts | 165° |
| 2026-05-06 17:59 | 5.95117 | -66.81233 | 35025 ft | 490 kts | 165° |
| 2026-05-06 17:59 | 5.88537 | -66.79502 | 35026 ft | 489 kts | 165° |
| 2026-05-06 18:00 | 5.81959 | -66.77772 | 35027 ft | 489 kts | 165° |
| 2026-05-06 18:00 | 5.75379 | -66.76041 | 35027 ft | 490 kts | 165° |
| 2026-05-06 18:01 | 5.68751 | -66.74299 | 35027 ft | 490 kts | 165° |
| 2026-05-06 18:01 | 5.62180 | -66.72571 | 35028 ft | 489 kts | 165° |
| 2026-05-06 18:02 | 5.55593 | -66.70840 | 35029 ft | 489 kts | 165° |
| 2026-05-06 18:02 | 5.49016 | -66.69112 | 35029 ft | 489 kts | 165° |
| 2026-05-06 18:03 | 5.42437 | -66.67384 | 35030 ft | 489 kts | 165° |
| 2026-05-06 18:03 | 5.35859 | -66.65657 | 35031 ft | 489 kts | 165° |
| 2026-05-06 18:04 | 5.29287 | -66.63931 | 35031 ft | 488 kts | 165° |
| 2026-05-06 18:04 | 5.22677 | -66.62196 | 35032 ft | 488 kts | 165° |
| 2026-05-06 18:05 | 5.16120 | -66.60475 | 35033 ft | 488 kts | 165° |
| 2026-05-06 18:05 | 5.09556 | -66.58753 | 35015 ft | 488 kts | 165° |
| 2026-05-06 18:06 | 5.02985 | -66.57029 | 35015 ft | 488 kts | 165° |
| 2026-05-06 18:06 | 4.96428 | -66.55309 | 35017 ft | 488 kts | 165° |
| 2026-05-06 18:07 | 4.89856 | -66.53586 | 35019 ft | 488 kts | 165° |
| 2026-05-06 18:07 | 4.83254 | -66.51855 | 35020 ft | 488 kts | 165° |
| 2026-05-06 18:08 | 4.76705 | -66.50138 | 35021 ft | 487 kts | 165° |
| 2026-05-06 18:08 | 4.70158 | -66.48421 | 35023 ft | 487 kts | 165° |
| 2026-05-06 18:09 | 4.63604 | -66.46704 | 35024 ft | 487 kts | 165° |
| 2026-05-06 18:09 | 4.57068 | -66.44992 | 35025 ft | 486 kts | 165° |
| 2026-05-06 18:10 | 4.50530 | -66.43279 | 35026 ft | 486 kts | 165° |
| 2026-05-06 18:10 | 4.43941 | -66.41561 | 35026 ft | 487 kts | 166° |
| 2026-05-06 18:11 | 4.38444 | -66.40392 | 35028 ft | 487 kts | 169° |
| 2026-05-06 18:11 | 4.30680 | -66.38931 | 35029 ft | 487 kts | 169° |
| 2026-05-06 18:12 | 4.24039 | -66.37651 | 35029 ft | 487 kts | 168° |
| 2026-05-06 18:12 | 4.17403 | -66.36358 | 35030 ft | 487 kts | 168° |
| 2026-05-06 18:13 | 4.10771 | -66.35062 | 35031 ft | 486 kts | 168° |
| 2026-05-06 18:13 | 4.04101 | -66.33755 | 35031 ft | 485 kts | 168° |
| 2026-05-06 18:14 | 3.97481 | -66.32459 | 35032 ft | 486 kts | 168° |
| 2026-05-06 18:14 | 3.90859 | -66.31162 | 35032 ft | 486 kts | 168° |
| 2026-05-06 18:15 | 3.84228 | -66.29864 | 35041 ft | 486 kts | 168° |
| 2026-05-06 18:15 | 3.77610 | -66.28568 | 35043 ft | 486 kts | 168° |
| 2026-05-06 18:16 | 3.70989 | -66.27272 | 35042 ft | 486 kts | 168° |
| 2026-05-06 18:16 | 3.64349 | -66.25972 | 35042 ft | 487 kts | 168° |
| 2026-05-06 18:17 | 3.58792 | -66.24885 | 35042 ft | 487 kts | 168° |
| 2026-05-06 18:17 | 3.52158 | -66.23587 | 35041 ft | 487 kts | 168° |
| 2026-05-06 18:18 | 3.45522 | -66.22289 | 35041 ft | 487 kts | 168° |
| 2026-05-06 18:18 | 3.38885 | -66.20991 | 35041 ft | 487 kts | 168° |
| 2026-05-06 18:19 | 3.32197 | -66.19683 | 35038 ft | 487 kts | 168° |
| 2026-05-06 18:19 | 3.25561 | -66.18385 | 35036 ft | 486 kts | 168° |
| 2026-05-06 18:20 | 3.18932 | -66.17089 | 35036 ft | 486 kts | 168° |
| 2026-05-06 18:20 | 3.12302 | -66.15793 | 35036 ft | 487 kts | 168° |
| 2026-05-06 18:21 | 3.05663 | -66.14495 | 35035 ft | 487 kts | 168° |
| 2026-05-06 18:21 | 2.99016 | -66.13196 | 35034 ft | 487 kts | 168° |
| 2026-05-06 18:22 | 2.92373 | -66.11897 | 35033 ft | 487 kts | 168° |
| 2026-05-06 18:22 | 2.85684 | -66.10590 | 35033 ft | 487 kts | 168° |
| 2026-05-06 18:23 | 2.79040 | -66.09292 | 35035 ft | 488 kts | 168° |
| 2026-05-06 18:23 | 2.72391 | -66.07993 | 35035 ft | 488 kts | 168° |
| 2026-05-06 18:24 | 2.65736 | -66.06693 | 35035 ft | 488 kts | 168° |
| 2026-05-06 18:24 | 2.59078 | -66.05392 | 35034 ft | 489 kts | 168° |
| 2026-05-06 18:25 | 2.52416 | -66.04091 | 35034 ft | 489 kts | 168° |
| 2026-05-06 18:25 | 2.45741 | -66.02788 | 35033 ft | 489 kts | 168° |
| 2026-05-06 18:26 | 2.39028 | -66.01477 | 35032 ft | 489 kts | 167° |
| 2026-05-06 18:26 | 2.32360 | -66.00162 | 35032 ft | 489 kts | 167° |
| 2026-05-06 18:27 | 2.25695 | -65.98846 | 35031 ft | 489 kts | 167° |
| 2026-05-06 18:27 | 2.19021 | -65.97529 | 35030 ft | 489 kts | 167° |
| 2026-05-06 18:28 | 2.12356 | -65.96212 | 35030 ft | 489 kts | 167° |
| 2026-05-06 18:28 | 2.05683 | -65.94895 | 35029 ft | 490 kts | 167° |
| 2026-05-06 18:29 | 1.98961 | -65.93568 | 35029 ft | 489 kts | 167° |
| 2026-05-06 18:29 | 1.92292 | -65.92251 | 35028 ft | 489 kts | 167° |
| 2026-05-06 18:30 | 1.85624 | -65.90934 | 35028 ft | 489 kts | 167° |
| 2026-05-06 18:30 | 1.78947 | -65.89617 | 35027 ft | 489 kts | 167° |
| 2026-05-06 18:31 | 1.72277 | -65.88300 | 35027 ft | 489 kts | 167° |
| 2026-05-06 18:31 | 1.65607 | -65.86984 | 35026 ft | 489 kts | 167° |
| 2026-05-06 18:32 | 1.58895 | -65.85659 | 35026 ft | 489 kts | 167° |
| 2026-05-06 18:32 | 1.52236 | -65.84345 | 35025 ft | 489 kts | 167° |
| 2026-05-06 18:33 | 1.45573 | -65.83030 | 35025 ft | 488 kts | 167° |
| 2026-05-06 18:33 | 1.38920 | -65.81717 | 35025 ft | 489 kts | 167° |
| 2026-05-06 18:34 | 1.32252 | -65.80402 | 35024 ft | 488 kts | 167° |
| 2026-05-06 18:34 | 1.25609 | -65.79091 | 35024 ft | 488 kts | 167° |
| 2026-05-06 18:35 | 1.18956 | -65.77778 | 35024 ft | 488 kts | 167° |
| 2026-05-06 18:35 | 1.12259 | -65.76457 | 35024 ft | 487 kts | 167° |
| 2026-05-06 18:36 | 1.05615 | -65.75146 | 35023 ft | 487 kts | 167° |
| 2026-05-06 18:36 | 0.98977 | -65.73834 | 35023 ft | 487 kts | 167° |
| 2026-05-06 18:37 | 0.92369 | -65.72409 | 35023 ft | 487 kts | 166° |
| 2026-05-06 18:37 | 0.85763 | -65.70992 | 35022 ft | 486 kts | 166° |
| 2026-05-06 18:38 | 0.79149 | -65.69589 | 35022 ft | 486 kts | 166° |
| 2026-05-06 18:38 | 0.72498 | -65.68185 | 35022 ft | 486 kts | 166° |
| 2026-05-06 18:39 | 0.65891 | -65.66796 | 35022 ft | 486 kts | 166° |
| 2026-05-06 18:40 | 0.55985 | -65.64719 | 35022 ft | 486 kts | 166° |
| 2026-05-06 18:40 | 0.49383 | -65.63344 | 35021 ft | 486 kts | 166° |
| 2026-05-06 18:41 | 0.42774 | -65.61966 | 35022 ft | 486 kts | 166° |
| 2026-05-06 18:41 | 0.36171 | -65.60589 | 35021 ft | 486 kts | 166° |
| 2026-05-06 18:42 | 0.29519 | -65.59202 | 35021 ft | 486 kts | 166° |
| 2026-05-06 18:42 | 0.22914 | -65.57825 | 35021 ft | 486 kts | 166° |
| 2026-05-06 18:43 | 0.16307 | -65.56448 | 35021 ft | 486 kts | 166° |
| 2026-05-06 18:43 | 0.09692 | -65.55067 | 35021 ft | 486 kts | 166° |
| 2026-05-06 18:44 | 0.03086 | -65.53688 | 35020 ft | 486 kts | 166° |
| 2026-05-06 18:44 | -0.03490 | -65.52174 | 35020 ft | 486 kts | 164° |
| 2026-05-06 18:45 | -0.10040 | -65.50563 | 35020 ft | 486 kts | 164° |
| 2026-05-06 18:45 | -0.16637 | -65.48939 | 35015 ft | 486 kts | 164° |
| 2026-05-06 18:46 | -0.23187 | -65.47325 | 35015 ft | 486 kts | 164° |
| 2026-05-06 18:46 | -0.29612 | -65.45347 | 35015 ft | 484 kts | 153° |
| 2026-05-06 18:47 | -0.35428 | -65.42019 | 35015 ft | 482 kts | 146° |
| 2026-05-06 18:47 | -0.41077 | -65.38435 | 35013 ft | 482 kts | 146° |
| 2026-05-06 18:48 | -0.46723 | -65.34836 | 35013 ft | 482 kts | 146° |
| 2026-05-06 18:48 | -0.52407 | -65.31202 | 35013 ft | 483 kts | 146° |
| 2026-05-06 18:49 | -0.58049 | -65.27586 | 35011 ft | 483 kts | 146° |
| 2026-05-06 18:49 | -0.63700 | -65.23954 | 35012 ft | 484 kts | 146° |
| 2026-05-06 18:50 | -0.69341 | -65.20323 | 35010 ft | 484 kts | 146° |
| 2026-05-06 18:50 | -0.74993 | -65.16674 | 35010 ft | 485 kts | 146° |
| 2026-05-06 18:51 | -0.80652 | -65.13017 | 35009 ft | 485 kts | 146° |
| 2026-05-06 18:51 | -0.86332 | -65.09398 | 35009 ft | 486 kts | 147° |
| 2026-05-06 18:52 | -0.92150 | -65.05907 | 35008 ft | 486 kts | 148° |
| 2026-05-06 18:52 | -0.97939 | -65.02433 | 35008 ft | 486 kts | 148° |
| 2026-05-06 18:53 | -1.03718 | -64.98964 | 35007 ft | 486 kts | 148° |
| 2026-05-06 18:53 | -1.09750 | -64.95945 | 35007 ft | 487 kts | 155° |
| 2026-05-06 18:54 | -1.15987 | -64.93301 | 35006 ft | 488 kts | 156° |
| 2026-05-06 18:54 | -1.22232 | -64.90658 | 35006 ft | 488 kts | 156° |
| 2026-05-06 18:55 | -1.28524 | -64.87995 | 35005 ft | 488 kts | 156° |
| 2026-05-06 18:55 | -1.34771 | -64.85350 | 35004 ft | 488 kts | 156° |
| 2026-05-06 18:56 | -1.41019 | -64.82692 | 35004 ft | 489 kts | 156° |
| 2026-05-06 18:56 | -1.47272 | -64.80030 | 35003 ft | 489 kts | 156° |
| 2026-05-06 18:57 | -1.53525 | -64.77367 | 35002 ft | 489 kts | 155° |
| 2026-05-06 18:57 | -1.59679 | -64.74496 | 34999 ft | 489 kts | 150° |
| 2026-05-06 18:58 | -1.65119 | -64.70476 | 35003 ft | 487 kts | 137° |
| 2026-05-06 18:58 | -1.70090 | -64.65830 | 35000 ft | 487 kts | 135° |
| 2026-05-06 18:59 | -1.75002 | -64.61188 | 35000 ft | 487 kts | 135° |
| 2026-05-06 18:59 | -1.79913 | -64.56545 | 35000 ft | 487 kts | 135° |
| 2026-05-06 19:00 | -1.84830 | -64.51895 | 34999 ft | 487 kts | 135° |
| 2026-05-06 19:00 | -1.89739 | -64.47249 | 34999 ft | 487 kts | 135° |
| 2026-05-06 19:01 | -1.94657 | -64.42594 | 34998 ft | 487 kts | 135° |
| 2026-05-06 19:01 | -1.99943 | -64.38292 | 34999 ft | 488 kts | 143° |
| 2026-05-06 19:02 | -2.05511 | -64.34416 | 34998 ft | 489 kts | 144° |
| 2026-05-06 19:02 | -2.11122 | -64.30584 | 34997 ft | 489 kts | 144° |
| 2026-05-06 19:03 | -2.16738 | -64.26747 | 34997 ft | 489 kts | 144° |
| 2026-05-06 19:03 | -2.22496 | -64.23146 | 34997 ft | 490 kts | 148° |
| 2026-05-06 19:04 | -2.28339 | -64.19659 | 34996 ft | 490 kts | 148° |
| 2026-05-06 19:04 | -2.34159 | -64.16139 | 34996 ft | 490 kts | 147° |
| 2026-05-06 19:05 | -2.40016 | -64.12578 | 34996 ft | 490 kts | 147° |
| 2026-05-06 19:05 | -2.45824 | -64.09039 | 34994 ft | 490 kts | 147° |
| 2026-05-06 19:06 | -2.51635 | -64.05494 | 34995 ft | 490 kts | 147° |
| 2026-05-06 19:06 | -2.57448 | -64.01947 | 34993 ft | 490 kts | 147° |
| 2026-05-06 19:07 | -2.63263 | -63.98398 | 34994 ft | 491 kts | 147° |
| 2026-05-06 19:07 | -2.69076 | -63.94849 | 34993 ft | 490 kts | 147° |
| 2026-05-06 19:08 | -2.74933 | -63.91274 | 34993 ft | 491 kts | 147° |
| 2026-05-06 19:08 | -2.80744 | -63.87726 | 34993 ft | 491 kts | 147° |
| 2026-05-06 19:09 | -2.86568 | -63.84169 | 34993 ft | 491 kts | 147° |
| 2026-05-06 19:09 | -2.92386 | -63.80616 | 34993 ft | 491 kts | 147° |
| 2026-05-06 19:10 | -2.98203 | -63.77063 | 34993 ft | 491 kts | 147° |
| 2026-05-06 19:10 | -3.04029 | -63.73504 | 34992 ft | 491 kts | 147° |
| 2026-05-06 19:11 | -3.09852 | -63.69946 | 34992 ft | 491 kts | 147° |
| 2026-05-06 19:11 | -3.14726 | -63.66968 | 34991 ft | 491 kts | 147° |
| 2026-05-06 19:12 | -3.20548 | -63.63410 | 34992 ft | 491 kts | 147° |
| 2026-05-06 19:12 | -3.26373 | -63.59850 | 34992 ft | 491 kts | 147° |
| 2026-05-06 19:13 | -3.32195 | -63.56291 | 34991 ft | 492 kts | 147° |
| 2026-05-06 19:13 | -3.38026 | -63.52726 | 34990 ft | 492 kts | 147° |
| 2026-05-06 19:14 | -3.43897 | -63.49136 | 34987 ft | 492 kts | 147° |
| 2026-05-06 19:14 | -3.49722 | -63.45574 | 34986 ft | 492 kts | 147° |
| 2026-05-06 19:15 | -3.55545 | -63.42012 | 34986 ft | 492 kts | 147° |
| 2026-05-06 19:15 | -3.61372 | -63.38448 | 34985 ft | 492 kts | 147° |
| 2026-05-06 19:16 | -3.67203 | -63.34880 | 34985 ft | 492 kts | 147° |
| 2026-05-06 19:16 | -3.73067 | -63.31291 | 34984 ft | 492 kts | 147° |
| 2026-05-06 19:17 | -3.78855 | -63.27749 | 34984 ft | 492 kts | 147° |
| 2026-05-06 19:17 | -3.85024 | -63.24740 | 34984 ft | 493 kts | 161° |
| 2026-05-06 19:18 | -3.91673 | -63.23029 | 34982 ft | 495 kts | 166° |
| 2026-05-06 19:18 | -3.98141 | -63.20789 | 34982 ft | 493 kts | 151° |
| 2026-05-06 19:19 | -4.03864 | -63.17052 | 34981 ft | 492 kts | 143° |
| 2026-05-06 19:19 | -4.09390 | -63.13024 | 34980 ft | 492 kts | 143° |
| 2026-05-06 19:20 | -4.14913 | -63.08991 | 34979 ft | 492 kts | 143° |
| 2026-05-06 19:20 | -4.20466 | -63.04933 | 34978 ft | 492 kts | 143° |
| 2026-05-06 19:21 | -4.25988 | -63.00894 | 34977 ft | 492 kts | 142° |
| 2026-05-06 19:21 | -4.31512 | -62.96852 | 34979 ft | 492 kts | 142° |
| 2026-05-06 19:22 | -4.37025 | -62.92813 | 34979 ft | 492 kts | 142° |
| 2026-05-06 19:22 | -4.42549 | -62.88769 | 34978 ft | 492 kts | 143° |
| 2026-05-06 19:23 | -4.48310 | -62.85068 | 34978 ft | 493 kts | 148° |
| 2026-05-06 19:23 | -4.54233 | -62.81523 | 34977 ft | 493 kts | 148° |
| 2026-05-06 19:24 | -4.60092 | -62.77957 | 34976 ft | 493 kts | 147° |
| 2026-05-06 19:24 | -4.65944 | -62.74373 | 34975 ft | 493 kts | 147° |
| 2026-05-06 19:25 | -4.71785 | -62.70790 | 34975 ft | 493 kts | 147° |
| 2026-05-06 19:25 | -4.77635 | -62.67199 | 34966 ft | 494 kts | 147° |
| 2026-05-06 19:26 | -4.83485 | -62.63607 | 34960 ft | 494 kts | 147° |
| 2026-05-06 19:26 | -4.89332 | -62.60018 | 34959 ft | 494 kts | 147° |
| 2026-05-06 19:27 | -4.95215 | -62.56404 | 34959 ft | 494 kts | 147° |
| 2026-05-06 19:27 | -5.01067 | -62.52807 | 34958 ft | 494 kts | 147° |
| 2026-05-06 19:28 | -5.06911 | -62.49214 | 34958 ft | 494 kts | 147° |
| 2026-05-06 19:28 | -5.12729 | -62.45562 | 34958 ft | 494 kts | 144° |
| 2026-05-06 19:29 | -5.18242 | -62.41481 | 34958 ft | 493 kts | 141° |
| 2026-05-06 19:29 | -5.23660 | -62.37282 | 34958 ft | 493 kts | 141° |
| 2026-05-06 19:30 | -5.29138 | -62.33077 | 34957 ft | 493 kts | 141° |
| 2026-05-06 19:30 | -5.34588 | -62.28912 | 34957 ft | 493 kts | 141° |
| 2026-05-06 19:31 | -5.40042 | -62.24752 | 34957 ft | 493 kts | 141° |
| 2026-05-06 19:31 | -5.48231 | -62.18516 | 34957 ft | 493 kts | 141° |
| 2026-05-06 19:32 | -5.53692 | -62.14354 | 34957 ft | 493 kts | 141° |
| 2026-05-06 19:32 | -5.59150 | -62.10193 | 34956 ft | 493 kts | 142° |
| 2026-05-06 19:33 | -5.64642 | -62.06006 | 34956 ft | 494 kts | 142° |
| 2026-05-06 19:33 | -5.70108 | -62.01837 | 34956 ft | 494 kts | 142° |
| 2026-05-06 19:34 | -5.75560 | -61.97678 | 34956 ft | 494 kts | 142° |
| 2026-05-06 19:34 | -5.81023 | -61.93509 | 34955 ft | 494 kts | 142° |
| 2026-05-06 19:35 | -5.86483 | -61.89342 | 34955 ft | 494 kts | 142° |
| 2026-05-06 19:35 | -5.91976 | -61.85148 | 34955 ft | 494 kts | 142° |
| 2026-05-06 19:36 | -5.97432 | -61.80982 | 34955 ft | 494 kts | 142° |
| 2026-05-06 19:36 | -6.02888 | -61.76815 | 34955 ft | 494 kts | 142° |
| 2026-05-06 19:37 | -6.08345 | -61.72645 | 35131 ft | 494 kts | 142° |
| 2026-05-06 19:37 | -6.11082 | -61.70553 | 35417 ft | 496 kts | 142° |
| 2026-05-06 19:37 | -6.12896 | -61.69167 | 35617 ft | 496 kts | 142° |
| 2026-05-06 19:38 | -6.16557 | -61.66369 | 36120 ft | 494 kts | 142° |
| 2026-05-06 19:38 | -6.19287 | -61.64282 | 36460 ft | 493 kts | 142° |
| 2026-05-06 19:38 | -6.22012 | -61.62198 | 36763 ft | 493 kts | 142° |
| 2026-05-06 19:38 | -6.24733 | -61.60117 | 36920 ft | 493 kts | 142° |
| 2026-05-06 19:39 | -6.30223 | -61.55918 | 36953 ft | 493 kts | 142° |
| 2026-05-06 19:39 | -6.34747 | -61.52457 | 36954 ft | 493 kts | 142° |
| 2026-05-06 19:40 | -6.41117 | -61.47583 | 36954 ft | 493 kts | 142° |
| 2026-05-06 19:40 | -6.46570 | -61.43409 | 36954 ft | 493 kts | 142° |
| 2026-05-06 19:41 | -6.52017 | -61.39237 | 36954 ft | 493 kts | 142° |
| 2026-05-06 19:41 | -6.57465 | -61.35065 | 36953 ft | 493 kts | 142° |
| 2026-05-06 19:42 | -6.62917 | -61.30888 | 36953 ft | 493 kts | 142° |
| 2026-05-06 19:42 | -6.68409 | -61.26679 | 36953 ft | 494 kts | 142° |
| 2026-05-06 19:43 | -6.73860 | -61.22501 | 36953 ft | 494 kts | 142° |
| 2026-05-06 19:43 | -6.79319 | -61.18315 | 36953 ft | 494 kts | 142° |
| 2026-05-06 19:44 | -6.84769 | -61.14135 | 36953 ft | 494 kts | 142° |
| 2026-05-06 19:44 | -6.90224 | -61.09950 | 36953 ft | 494 kts | 142° |
| 2026-05-06 19:45 | -6.95673 | -61.05768 | 36953 ft | 494 kts | 142° |
| 2026-05-06 19:45 | -7.01165 | -61.01552 | 36953 ft | 494 kts | 142° |
| 2026-05-06 19:46 | -7.06614 | -60.97367 | 36953 ft | 494 kts | 142° |
| 2026-05-06 19:46 | -7.12069 | -60.93177 | 36952 ft | 494 kts | 142° |
| 2026-05-06 19:47 | -7.17524 | -60.88985 | 36952 ft | 494 kts | 142° |
| 2026-05-06 19:47 | -7.22975 | -60.84796 | 36952 ft | 493 kts | 142° |
| 2026-05-06 19:48 | -7.28422 | -60.80607 | 36952 ft | 493 kts | 142° |
| 2026-05-06 19:48 | -7.33911 | -60.76386 | 36952 ft | 494 kts | 142° |
| 2026-05-06 19:49 | -7.39359 | -60.72194 | 36952 ft | 493 kts | 142° |
| 2026-05-06 19:49 | -7.44803 | -60.68005 | 36953 ft | 493 kts | 142° |
| 2026-05-06 19:50 | -7.50241 | -60.63818 | 36952 ft | 493 kts | 142° |
| 2026-05-06 19:50 | -7.55685 | -60.59626 | 36952 ft | 493 kts | 142° |
| 2026-05-06 19:51 | -7.61114 | -60.55443 | 36952 ft | 493 kts | 142° |
| 2026-05-06 19:51 | -7.66596 | -60.51219 | 36952 ft | 493 kts | 142° |
| 2026-05-06 19:52 | -7.72039 | -60.47023 | 36953 ft | 493 kts | 142° |
| 2026-05-06 19:52 | -7.77471 | -60.42834 | 36953 ft | 492 kts | 142° |
| 2026-05-06 19:53 | -7.82900 | -60.38646 | 36952 ft | 492 kts | 142° |
| 2026-05-06 19:53 | -7.88324 | -60.34461 | 36953 ft | 492 kts | 142° |
| 2026-05-06 19:54 | -7.93754 | -60.30270 | 36953 ft | 492 kts | 143° |
| 2026-05-06 19:54 | -7.99177 | -60.26082 | 36953 ft | 492 kts | 143° |
| 2026-05-06 19:55 | -8.04608 | -60.21888 | 36953 ft | 492 kts | 143° |
| 2026-05-06 19:55 | -8.10063 | -60.17672 | 36953 ft | 492 kts | 143° |
| 2026-05-06 19:56 | -8.15485 | -60.13481 | 36953 ft | 492 kts | 143° |
| 2026-05-06 19:56 | -8.20910 | -60.09286 | 36954 ft | 492 kts | 143° |
| 2026-05-06 19:57 | -8.26330 | -60.05094 | 36953 ft | 492 kts | 143° |
| 2026-05-06 19:57 | -8.31756 | -60.00895 | 36954 ft | 492 kts | 143° |
| 2026-05-06 19:58 | -8.37178 | -59.96699 | 36955 ft | 492 kts | 142° |
| 2026-05-06 19:58 | -8.42634 | -59.92473 | 36945 ft | 492 kts | 143° |
| 2026-05-06 19:59 | -8.48062 | -59.88269 | 36945 ft | 492 kts | 143° |
| 2026-05-06 19:59 | -8.53486 | -59.84066 | 36945 ft | 492 kts | 143° |
| 2026-05-06 20:00 | -8.58910 | -59.79861 | 36946 ft | 492 kts | 143° |
| 2026-05-06 20:00 | -8.64339 | -59.75652 | 36977 ft | 492 kts | 143° |
| 2026-05-06 20:01 | -8.69766 | -59.71441 | 36983 ft | 493 kts | 143° |
| 2026-05-06 20:01 | -8.75235 | -59.67197 | 36984 ft | 493 kts | 143° |
| 2026-05-06 20:02 | -8.80657 | -59.62988 | 36980 ft | 493 kts | 143° |
| 2026-05-06 20:02 | -8.86093 | -59.58766 | 36975 ft | 493 kts | 143° |
| 2026-05-06 20:03 | -8.91519 | -59.54550 | 36976 ft | 493 kts | 143° |
| 2026-05-06 20:03 | -8.96954 | -59.50326 | 36977 ft | 493 kts | 143° |
| 2026-05-06 20:04 | -9.02390 | -59.46099 | 36977 ft | 494 kts | 143° |
| 2026-05-06 20:04 | -9.07830 | -59.41867 | 36978 ft | 494 kts | 143° |
| 2026-05-06 20:05 | -9.12378 | -59.38329 | 36978 ft | 494 kts | 143° |
| 2026-05-06 20:05 | -9.17817 | -59.34095 | 36973 ft | 494 kts | 143° |
| 2026-05-06 20:06 | -9.23253 | -59.29862 | 36974 ft | 494 kts | 143° |
| 2026-05-06 20:06 | -9.28691 | -59.25625 | 36975 ft | 494 kts | 143° |
| 2026-05-06 20:07 | -9.34163 | -59.21361 | 36975 ft | 494 kts | 143° |
| 2026-05-06 20:07 | -9.39594 | -59.17127 | 36986 ft | 494 kts | 143° |
| 2026-05-06 20:08 | -9.45026 | -59.12889 | 36987 ft | 494 kts | 143° |
| 2026-05-06 20:08 | -9.50461 | -59.08648 | 36988 ft | 493 kts | 143° |
| 2026-05-06 20:09 | -9.55885 | -59.04414 | 36988 ft | 493 kts | 143° |
| 2026-05-06 20:09 | -9.61314 | -59.00175 | 36988 ft | 493 kts | 143° |
| 2026-05-06 20:10 | -9.66738 | -58.95937 | 36988 ft | 493 kts | 143° |
| 2026-05-06 20:10 | -9.72195 | -58.91672 | 36989 ft | 493 kts | 143° |
| 2026-05-06 20:11 | -9.77623 | -58.87428 | 36989 ft | 493 kts | 143° |
| 2026-05-06 20:11 | -9.83038 | -58.83192 | 36989 ft | 493 kts | 143° |
| 2026-05-06 20:12 | -9.88459 | -58.78950 | 36990 ft | 493 kts | 143° |
| 2026-05-06 20:12 | -9.93879 | -58.74705 | 36987 ft | 493 kts | 143° |
| 2026-05-06 20:13 | -9.99294 | -58.70465 | 36987 ft | 492 kts | 143° |
| 2026-05-06 20:13 | -10.04735 | -58.66201 | 36988 ft | 492 kts | 143° |
| 2026-05-06 20:14 | -10.10147 | -58.61958 | 36988 ft | 492 kts | 143° |
| 2026-05-06 20:14 | -10.15562 | -58.57712 | 36988 ft | 492 kts | 143° |
| 2026-05-06 20:15 | -10.20971 | -58.53467 | 36988 ft | 492 kts | 143° |
| 2026-05-06 20:15 | -10.26376 | -58.49224 | 36980 ft | 492 kts | 143° |
| 2026-05-06 20:16 | -10.31779 | -58.44982 | 36978 ft | 492 kts | 143° |
| 2026-05-06 20:16 | -10.37220 | -58.40706 | 36979 ft | 492 kts | 143° |
| 2026-05-06 20:17 | -10.42619 | -58.36462 | 36979 ft | 492 kts | 143° |
| 2026-05-06 20:17 | -10.48027 | -58.32209 | 36979 ft | 492 kts | 143° |
| 2026-05-06 20:18 | -10.53431 | -58.27958 | 36979 ft | 492 kts | 143° |
| 2026-05-06 20:18 | -10.58839 | -58.23702 | 36979 ft | 492 kts | 143° |
| 2026-05-06 20:19 | -10.64248 | -58.19442 | 36979 ft | 492 kts | 143° |
| 2026-05-06 20:19 | -10.69650 | -58.15185 | 36979 ft | 493 kts | 143° |
| 2026-05-06 20:20 | -10.75101 | -58.10889 | 36979 ft | 493 kts | 143° |
| 2026-05-06 20:20 | -10.80512 | -58.06622 | 36979 ft | 493 kts | 143° |
| 2026-05-06 20:21 | -10.85920 | -58.02355 | 36979 ft | 493 kts | 143° |
| 2026-05-06 20:21 | -10.91337 | -57.98079 | 36979 ft | 493 kts | 143° |
| 2026-05-06 20:22 | -10.96744 | -57.93813 | 36979 ft | 493 kts | 143° |
| 2026-05-06 20:22 | -11.02154 | -57.89542 | 36979 ft | 493 kts | 143° |
| 2026-05-06 20:23 | -11.07600 | -57.85234 | 36979 ft | 493 kts | 143° |
| 2026-05-06 20:23 | -11.13007 | -57.80955 | 36980 ft | 493 kts | 143° |
| 2026-05-06 20:24 | -11.18425 | -57.76667 | 36979 ft | 494 kts | 143° |
| 2026-05-06 20:24 | -11.23858 | -57.72407 | 36980 ft | 494 kts | 144° |
| 2026-05-06 20:25 | -11.29344 | -57.68210 | 36979 ft | 494 kts | 144° |
| 2026-05-06 20:25 | -11.34821 | -57.64004 | 36979 ft | 494 kts | 144° |
| 2026-05-06 20:26 | -11.40337 | -57.59761 | 36979 ft | 494 kts | 144° |
| 2026-05-06 20:26 | -11.45809 | -57.55546 | 36979 ft | 494 kts | 144° |
| 2026-05-06 20:27 | -11.51293 | -57.51329 | 36979 ft | 494 kts | 144° |
| 2026-05-06 20:27 | -11.56768 | -57.47118 | 36979 ft | 494 kts | 144° |
| 2026-05-06 20:28 | -11.62248 | -57.42897 | 36979 ft | 494 kts | 144° |
| 2026-05-06 20:28 | -11.67728 | -57.38672 | 36979 ft | 494 kts | 144° |
| 2026-05-06 20:29 | -11.73204 | -57.34447 | 36979 ft | 494 kts | 144° |
| 2026-05-06 20:29 | -11.78712 | -57.30195 | 36979 ft | 494 kts | 144° |
| 2026-05-06 20:30 | -11.86923 | -57.23853 | 36979 ft | 494 kts | 144° |
| 2026-05-06 20:31 | -11.92394 | -57.19624 | 36979 ft | 494 kts | 144° |
| 2026-05-06 20:31 | -11.97860 | -57.15397 | 36979 ft | 494 kts | 144° |
| 2026-05-06 20:32 | -12.03333 | -57.11162 | 36979 ft | 494 kts | 144° |
| 2026-05-06 20:32 | -12.08796 | -57.06933 | 36979 ft | 494 kts | 144° |
| 2026-05-06 20:33 | -12.14306 | -57.02665 | 36979 ft | 494 kts | 144° |
| 2026-05-06 20:33 | -12.19763 | -56.98436 | 36979 ft | 493 kts | 144° |
| 2026-05-06 20:34 | -12.25224 | -56.94202 | 36978 ft | 493 kts | 144° |
| 2026-05-06 20:34 | -12.30682 | -56.89968 | 36978 ft | 493 kts | 144° |
| 2026-05-06 20:35 | -12.36139 | -56.85731 | 36978 ft | 493 kts | 144° |
| 2026-05-06 20:35 | -12.41592 | -56.81497 | 36978 ft | 493 kts | 144° |
| 2026-05-06 20:36 | -12.47083 | -56.77230 | 36978 ft | 493 kts | 144° |
| 2026-05-06 20:36 | -12.52529 | -56.72996 | 36978 ft | 493 kts | 144° |
| 2026-05-06 20:37 | -12.57976 | -56.68758 | 36977 ft | 493 kts | 144° |
| 2026-05-06 20:37 | -12.63425 | -56.64517 | 36977 ft | 493 kts | 144° |
| 2026-05-06 20:38 | -12.68871 | -56.60276 | 36977 ft | 493 kts | 144° |
| 2026-05-06 20:38 | -12.74315 | -56.56034 | 36977 ft | 493 kts | 144° |
| 2026-05-06 20:39 | -12.79797 | -56.51761 | 36974 ft | 492 kts | 144° |
| 2026-05-06 20:39 | -12.85237 | -56.47517 | 36974 ft | 492 kts | 144° |
| 2026-05-06 20:40 | -12.90674 | -56.43273 | 36974 ft | 492 kts | 145° |
| 2026-05-06 20:40 | -12.96115 | -56.39024 | 36973 ft | 492 kts | 145° |
| 2026-05-06 20:41 | -13.01551 | -56.34777 | 36973 ft | 492 kts | 145° |
| 2026-05-06 20:41 | -13.06986 | -56.30528 | 36972 ft | 492 kts | 145° |
| 2026-05-06 20:42 | -13.12465 | -56.26242 | 36972 ft | 492 kts | 145° |
| 2026-05-06 20:42 | -13.17902 | -56.21986 | 36971 ft | 492 kts | 145° |
| 2026-05-06 20:43 | -13.23332 | -56.17734 | 36971 ft | 492 kts | 145° |
| 2026-05-06 20:43 | -13.28760 | -56.13480 | 36971 ft | 492 kts | 145° |
| 2026-05-06 20:44 | -13.34194 | -56.09219 | 36970 ft | 492 kts | 145° |
| 2026-05-06 20:44 | -13.39622 | -56.04961 | 36977 ft | 492 kts | 145° |
| 2026-05-06 20:45 | -13.45055 | -56.00697 | 36977 ft | 492 kts | 145° |
| 2026-05-06 20:45 | -13.50518 | -55.96406 | 36976 ft | 491 kts | 145° |
| 2026-05-06 20:46 | -13.55941 | -55.92144 | 36977 ft | 491 kts | 145° |
| 2026-05-06 20:46 | -13.61362 | -55.87881 | 36977 ft | 492 kts | 145° |
| 2026-05-06 20:47 | -13.66787 | -55.83613 | 36976 ft | 492 kts | 145° |
| 2026-05-06 20:47 | -13.72203 | -55.79348 | 36976 ft | 492 kts | 145° |
| 2026-05-06 20:48 | -13.77660 | -55.75050 | 36976 ft | 492 kts | 145° |
| 2026-05-06 20:48 | -13.83083 | -55.70775 | 36976 ft | 492 kts | 145° |
| 2026-05-06 20:49 | -13.88500 | -55.66502 | 36976 ft | 492 kts | 145° |
| 2026-05-06 20:49 | -13.93921 | -55.62224 | 36976 ft | 491 kts | 145° |
| 2026-05-06 20:50 | -13.99332 | -55.57951 | 36976 ft | 491 kts | 145° |
| 2026-05-06 20:50 | -14.04745 | -55.53674 | 36975 ft | 491 kts | 145° |
| 2026-05-06 20:51 | -14.10180 | -55.49377 | 36975 ft | 490 kts | 145° |
| 2026-05-06 20:51 | -14.15590 | -55.45098 | 36976 ft | 491 kts | 145° |
| 2026-05-06 20:52 | -14.20994 | -55.40820 | 36976 ft | 491 kts | 145° |
| 2026-05-06 20:52 | -14.26391 | -55.36545 | 36975 ft | 490 kts | 146° |
| 2026-05-06 20:53 | -14.31784 | -55.32270 | 36975 ft | 490 kts | 146° |
| 2026-05-06 20:53 | -14.37184 | -55.27987 | 36975 ft | 490 kts | 145° |
| 2026-05-06 20:54 | -14.41698 | -55.24405 | 36975 ft | 489 kts | 146° |
| 2026-05-06 20:54 | -14.47083 | -55.20129 | 36975 ft | 489 kts | 146° |
| 2026-05-06 20:55 | -14.52464 | -55.15854 | 36976 ft | 489 kts | 146° |
| 2026-05-06 20:55 | -14.57844 | -55.11577 | 36976 ft | 489 kts | 146° |
| 2026-05-06 20:56 | -14.63221 | -55.07300 | 36976 ft | 488 kts | 146° |
| 2026-05-06 20:56 | -14.68626 | -55.02997 | 36977 ft | 488 kts | 146° |
| 2026-05-06 20:57 | -14.74005 | -54.98713 | 36977 ft | 488 kts | 146° |
| 2026-05-06 20:57 | -14.79369 | -54.94438 | 36977 ft | 488 kts | 146° |
| 2026-05-06 20:58 | -14.84738 | -54.90156 | 36977 ft | 488 kts | 146° |
| 2026-05-06 20:58 | -14.90109 | -54.85870 | 36977 ft | 488 kts | 146° |
| 2026-05-06 20:59 | -14.95469 | -54.81589 | 36978 ft | 488 kts | 146° |
| 2026-05-06 20:59 | -15.00860 | -54.77281 | 36979 ft | 488 kts | 146° |
| 2026-05-06 21:00 | -15.06219 | -54.72997 | 36979 ft | 488 kts | 146° |
| 2026-05-06 21:00 | -15.11580 | -54.68706 | 36980 ft | 488 kts | 146° |
| 2026-05-06 21:01 | -15.16938 | -54.64417 | 36981 ft | 487 kts | 146° |
| 2026-05-06 21:01 | -15.22290 | -54.60129 | 36982 ft | 487 kts | 146° |
| 2026-05-06 21:02 | -15.27639 | -54.55840 | 36983 ft | 487 kts | 146° |
| 2026-05-06 21:02 | -15.33028 | -54.51517 | 36984 ft | 487 kts | 146° |
| 2026-05-06 21:03 | -15.38367 | -54.47231 | 36985 ft | 487 kts | 146° |
| 2026-05-06 21:03 | -15.43707 | -54.42941 | 36986 ft | 487 kts | 146° |
| 2026-05-06 21:04 | -15.49052 | -54.38644 | 36987 ft | 487 kts | 146° |
| 2026-05-06 21:04 | -15.54388 | -54.34353 | 36988 ft | 486 kts | 146° |
| 2026-05-06 21:05 | -15.59727 | -54.30055 | 36990 ft | 486 kts | 146° |
| 2026-05-06 21:05 | -15.65064 | -54.25756 | 36991 ft | 486 kts | 146° |
| 2026-05-06 21:06 | -15.70438 | -54.21423 | 36990 ft | 486 kts | 146° |
| 2026-05-06 21:06 | -15.75765 | -54.17128 | 36998 ft | 486 kts | 146° |
| 2026-05-06 21:07 | -15.81089 | -54.12830 | 37000 ft | 486 kts | 146° |
| 2026-05-06 21:07 | -15.86416 | -54.08528 | 37002 ft | 486 kts | 146° |
| 2026-05-06 21:08 | -15.91741 | -54.04223 | 37011 ft | 486 kts | 146° |
| 2026-05-06 21:08 | -15.97059 | -53.99922 | 37013 ft | 486 kts | 146° |
| 2026-05-06 21:09 | -16.02386 | -53.95611 | 37014 ft | 486 kts | 146° |
| 2026-05-06 21:09 | -16.07743 | -53.91272 | 37016 ft | 486 kts | 146° |
| 2026-05-06 21:10 | -16.13058 | -53.86964 | 37017 ft | 486 kts | 146° |
| 2026-05-06 21:10 | -16.18382 | -53.82646 | 37018 ft | 486 kts | 146° |
| 2026-05-06 21:11 | -16.23696 | -53.78333 | 37019 ft | 486 kts | 146° |
| 2026-05-06 21:11 | -16.29011 | -53.74016 | 37019 ft | 485 kts | 146° |
| 2026-05-06 21:12 | -16.34356 | -53.69671 | 37020 ft | 485 kts | 146° |
| 2026-05-06 21:12 | -16.39661 | -53.65356 | 37021 ft | 485 kts | 146° |
| 2026-05-06 21:13 | -16.44964 | -53.61040 | 37022 ft | 485 kts | 146° |
| 2026-05-06 21:13 | -16.50264 | -53.56723 | 37023 ft | 484 kts | 146° |
| 2026-05-06 21:14 | -16.55557 | -53.52408 | 37023 ft | 484 kts | 146° |
| 2026-05-06 21:14 | -16.60858 | -53.48092 | 37024 ft | 484 kts | 146° |
| 2026-05-06 21:15 | -16.66182 | -53.43749 | 37025 ft | 483 kts | 146° |
| 2026-05-06 21:15 | -16.71464 | -53.39430 | 37021 ft | 483 kts | 146° |
| 2026-05-06 21:16 | -16.76741 | -53.35111 | 37021 ft | 483 kts | 146° |
| 2026-05-06 21:16 | -16.82012 | -53.30797 | 37022 ft | 482 kts | 146° |
| 2026-05-06 21:17 | -16.87147 | -53.26282 | 37022 ft | 484 kts | 142° |
| 2026-05-06 21:17 | -16.92067 | -53.21485 | 37023 ft | 485 kts | 141° |
| 2026-05-06 21:18 | -16.96988 | -53.16698 | 37023 ft | 485 kts | 141° |
| 2026-05-06 21:18 | -17.01930 | -53.11916 | 37024 ft | 484 kts | 141° |
| 2026-05-06 21:19 | -17.06896 | -53.07118 | 37024 ft | 484 kts | 141° |
| 2026-05-06 21:19 | -17.11839 | -53.02357 | 37024 ft | 484 kts | 141° |
| 2026-05-06 21:20 | -17.16776 | -52.97604 | 37025 ft | 483 kts | 142° |
| 2026-05-06 21:20 | -17.21705 | -52.92847 | 37025 ft | 483 kts | 141° |
| 2026-05-06 21:21 | -17.26632 | -52.88086 | 37026 ft | 483 kts | 141° |
| 2026-05-06 21:21 | -17.31586 | -52.83294 | 37027 ft | 482 kts | 141° |
| 2026-05-06 21:22 | -17.36498 | -52.78540 | 37027 ft | 482 kts | 141° |
| 2026-05-06 21:22 | -17.41412 | -52.73779 | 37028 ft | 482 kts | 142° |
| 2026-05-06 21:23 | -17.46318 | -52.69023 | 37028 ft | 481 kts | 141° |
| 2026-05-06 21:23 | -17.51219 | -52.64267 | 37029 ft | 481 kts | 142° |
| 2026-05-06 21:24 | -17.56116 | -52.59513 | 37030 ft | 481 kts | 142° |
| 2026-05-06 21:24 | -17.61010 | -52.54757 | 37031 ft | 480 kts | 142° |
| 2026-05-06 21:25 | -17.65928 | -52.49973 | 37031 ft | 480 kts | 142° |
| 2026-05-06 21:25 | -17.70805 | -52.45227 | 37032 ft | 479 kts | 142° |
| 2026-05-06 21:26 | -17.75678 | -52.40481 | 37033 ft | 479 kts | 142° |
| 2026-05-06 21:26 | -17.80553 | -52.35743 | 37034 ft | 478 kts | 142° |
| 2026-05-06 21:27 | -17.85407 | -52.31005 | 37062 ft | 478 kts | 142° |
| 2026-05-06 21:27 | -17.90297 | -52.26224 | 37064 ft | 478 kts | 142° |
| 2026-05-06 21:28 | -17.95145 | -52.21482 | 37066 ft | 477 kts | 142° |
| 2026-05-06 21:28 | -17.99999 | -52.16733 | 37067 ft | 477 kts | 142° |
| 2026-05-06 21:29 | -18.04917 | -52.12071 | 37069 ft | 477 kts | 143° |
| 2026-05-06 21:29 | -18.09842 | -52.07420 | 37070 ft | 477 kts | 143° |
| 2026-05-06 21:30 | -18.14757 | -52.02762 | 37071 ft | 477 kts | 143° |
| 2026-05-06 21:30 | -18.19704 | -51.98067 | 37073 ft | 477 kts | 143° |
| 2026-05-06 21:31 | -18.24632 | -51.93414 | 37074 ft | 477 kts | 143° |
| 2026-05-06 21:31 | -18.29547 | -51.88749 | 37076 ft | 476 kts | 143° |
| 2026-05-06 21:32 | -18.34453 | -51.84080 | 37077 ft | 476 kts | 143° |
| 2026-05-06 21:32 | -18.41811 | -51.77071 | 37079 ft | 476 kts | 143° |
| 2026-05-06 21:33 | -18.46714 | -51.72395 | 37080 ft | 476 kts | 143° |
| 2026-05-06 21:33 | -18.51618 | -51.67715 | 37082 ft | 477 kts | 143° |
| 2026-05-06 21:34 | -18.56550 | -51.63000 | 37082 ft | 477 kts | 143° |
| 2026-05-06 21:34 | -18.61454 | -51.58306 | 37083 ft | 476 kts | 143° |
| 2026-05-06 21:35 | -18.66349 | -51.53617 | 37085 ft | 476 kts | 143° |
| 2026-05-06 21:35 | -18.71245 | -51.48929 | 37086 ft | 476 kts | 143° |
| 2026-05-06 21:36 | -18.76145 | -51.44248 | 37087 ft | 476 kts | 143° |
| 2026-05-06 21:36 | -18.81033 | -51.39565 | 37088 ft | 475 kts | 143° |
| 2026-05-06 21:37 | -18.85948 | -51.34847 | 37092 ft | 475 kts | 143° |
| 2026-05-06 21:37 | -18.90841 | -51.30161 | 37097 ft | 475 kts | 143° |
| 2026-05-06 21:38 | -18.95718 | -51.25472 | 37111 ft | 476 kts | 143° |
| 2026-05-06 21:38 | -19.00600 | -51.20768 | 37111 ft | 476 kts | 143° |
| 2026-05-06 21:39 | -19.05485 | -51.16057 | 37112 ft | 476 kts | 143° |
| 2026-05-06 21:39 | -19.10364 | -51.11353 | 37114 ft | 476 kts | 143° |
| 2026-05-06 21:40 | -19.15246 | -51.06644 | 37115 ft | 476 kts | 143° |
| 2026-05-06 21:40 | -19.20159 | -51.01904 | 37115 ft | 475 kts | 143° |
| 2026-05-06 21:41 | -19.25029 | -50.97198 | 37116 ft | 475 kts | 143° |
| 2026-05-06 21:41 | -19.29898 | -50.92489 | 37116 ft | 475 kts | 143° |
| 2026-05-06 21:42 | -19.34767 | -50.87776 | 37117 ft | 475 kts | 143° |
| 2026-05-06 21:42 | -19.39645 | -50.83068 | 37118 ft | 475 kts | 143° |
| 2026-05-06 21:43 | -19.44517 | -50.78370 | 37118 ft | 474 kts | 143° |
| 2026-05-06 21:43 | -19.49382 | -50.73659 | 37119 ft | 474 kts | 143° |
| 2026-05-06 21:44 | -19.54267 | -50.68914 | 37119 ft | 474 kts | 143° |
| 2026-05-06 21:44 | -19.59127 | -50.64188 | 37119 ft | 474 kts | 143° |
| 2026-05-06 21:45 | -19.63978 | -50.59472 | 37119 ft | 474 kts | 144° |
| 2026-05-06 21:45 | -19.69208 | -50.55336 | 37120 ft | 467 kts | 153° |
| 2026-05-06 21:46 | -19.74736 | -50.51803 | 37119 ft | 463 kts | 155° |
| 2026-05-06 21:46 | -19.80278 | -50.48286 | 37119 ft | 461 kts | 155° |
| 2026-05-06 21:47 | -19.85773 | -50.44759 | 37119 ft | 462 kts | 155° |
| 2026-05-06 21:47 | -19.91262 | -50.41220 | 37120 ft | 463 kts | 155° |
| 2026-05-06 21:48 | -19.96762 | -50.37657 | 37119 ft | 463 kts | 155° |
| 2026-05-06 21:48 | -20.02254 | -50.34095 | 37116 ft | 463 kts | 155° |
| 2026-05-06 21:49 | -20.07739 | -50.30536 | 37116 ft | 462 kts | 155° |
| 2026-05-06 21:49 | -20.13005 | -50.26578 | 37117 ft | 468 kts | 146° |
| 2026-05-06 21:50 | -20.17066 | -50.22688 | 37116 ft | 472 kts | 143° |
| 2026-05-06 21:50 | -20.21828 | -50.17857 | 37116 ft | 474 kts | 143° |
| 2026-05-06 21:51 | -20.26617 | -50.13046 | 37115 ft | 474 kts | 143° |
| 2026-05-06 21:51 | -20.31416 | -50.08253 | 37115 ft | 473 kts | 143° |
| 2026-05-06 21:52 | -20.36214 | -50.03469 | 37115 ft | 473 kts | 143° |
| 2026-05-06 21:52 | -20.41062 | -49.98667 | 37115 ft | 473 kts | 143° |
| 2026-05-06 21:53 | -20.45862 | -49.93898 | 37115 ft | 473 kts | 143° |
| 2026-05-06 21:53 | -20.50657 | -49.89126 | 37114 ft | 471 kts | 143° |
| 2026-05-06 21:54 | -20.55443 | -49.84355 | 37114 ft | 471 kts | 143° |
| 2026-05-06 21:54 | -20.60224 | -49.79584 | 37114 ft | 472 kts | 143° |
| 2026-05-06 21:55 | -20.65003 | -49.74811 | 37113 ft | 471 kts | 144° |
| 2026-05-06 21:55 | -20.69815 | -49.70000 | 37113 ft | 471 kts | 143° |
| 2026-05-06 21:56 | -20.74591 | -49.65221 | 37113 ft | 471 kts | 143° |
| 2026-05-06 21:56 | -20.79368 | -49.60436 | 37113 ft | 471 kts | 143° |
| 2026-05-06 21:57 | -20.84137 | -49.55655 | 37112 ft | 471 kts | 144° |
| 2026-05-06 21:57 | -20.88908 | -49.50868 | 37112 ft | 471 kts | 144° |
| 2026-05-06 21:58 | -20.93672 | -49.46083 | 37112 ft | 470 kts | 143° |
| 2026-05-06 21:58 | -20.98425 | -49.41305 | 37113 ft | 470 kts | 143° |
| 2026-05-06 21:59 | -21.03210 | -49.36491 | 37114 ft | 470 kts | 144° |
| 2026-05-06 21:59 | -21.07964 | -49.31703 | 37114 ft | 469 kts | 144° |
| 2026-05-06 22:00 | -21.12705 | -49.26924 | 37115 ft | 469 kts | 144° |
| 2026-05-06 22:00 | -21.17449 | -49.22137 | 37117 ft | 469 kts | 144° |
| 2026-05-06 22:01 | -21.22190 | -49.17350 | 37118 ft | 469 kts | 144° |
| 2026-05-06 22:01 | -21.26969 | -49.12519 | 37120 ft | 470 kts | 144° |
| 2026-05-06 22:02 | -21.31713 | -49.07719 | 37121 ft | 469 kts | 144° |
| 2026-05-06 22:02 | -21.36445 | -49.02926 | 37123 ft | 468 kts | 144° |
| 2026-05-06 22:03 | -21.41176 | -48.98130 | 37125 ft | 469 kts | 144° |
| 2026-05-06 22:03 | -21.45905 | -48.93332 | 37127 ft | 469 kts | 144° |
| 2026-05-06 22:04 | -21.50631 | -48.88533 | 37128 ft | 468 kts | 144° |
| 2026-05-06 22:04 | -21.55388 | -48.83698 | 37130 ft | 468 kts | 144° |
| 2026-05-06 22:05 | -21.60107 | -48.78896 | 37005 ft | 467 kts | 144° |
| 2026-05-06 22:05 | -21.62449 | -48.76511 | 36688 ft | 460 kts | 144° |
| 2026-05-06 22:05 | -21.64749 | -48.74168 | 36197 ft | 455 kts | 144° |
| 2026-05-06 22:06 | -21.67032 | -48.71842 | 35709 ft | 450 kts | 144° |
| 2026-05-06 22:06 | -21.69291 | -48.69538 | 35207 ft | 446 kts | 144° |
| 2026-05-06 22:06 | -21.71529 | -48.67255 | 34720 ft | 442 kts | 144° |
| 2026-05-06 22:06 | -21.73744 | -48.64995 | 34238 ft | 438 kts | 144° |
| 2026-05-06 22:07 | -21.75940 | -48.62752 | 33760 ft | 433 kts | 144° |
| 2026-05-06 22:07 | -21.78111 | -48.60535 | 33279 ft | 429 kts | 144° |
| 2026-05-06 22:07 | -21.80261 | -48.58339 | 32800 ft | 425 kts | 144° |
| 2026-05-06 22:07 | -21.82424 | -48.56127 | 32312 ft | 421 kts | 144° |
| 2026-05-06 22:08 | -21.84535 | -48.53968 | 31833 ft | 418 kts | 143° |
| 2026-05-06 22:08 | -21.86628 | -48.51827 | 31352 ft | 414 kts | 143° |
| 2026-05-06 22:08 | -21.88701 | -48.49705 | 30874 ft | 410 kts | 143° |
| 2026-05-06 22:08 | -21.90757 | -48.47600 | 30396 ft | 407 kts | 143° |
| 2026-05-06 22:09 | -21.92797 | -48.45510 | 29922 ft | 405 kts | 143° |
| 2026-05-06 22:09 | -21.94835 | -48.43421 | 29435 ft | 406 kts | 142° |
| 2026-05-06 22:09 | -21.96880 | -48.41324 | 28939 ft | 406 kts | 142° |
| 2026-05-06 22:09 | -21.98923 | -48.39229 | 28437 ft | 406 kts | 142° |
| 2026-05-06 22:10 | -22.00963 | -48.37135 | 27933 ft | 405 kts | 141° |
| 2026-05-06 22:10 | -22.02994 | -48.35050 | 27429 ft | 403 kts | 141° |
| 2026-05-06 22:10 | -22.05011 | -48.32979 | 26926 ft | 400 kts | 141° |
| 2026-05-06 22:10 | -22.07013 | -48.30921 | 26424 ft | 398 kts | 140° |
| 2026-05-06 22:11 | -22.09036 | -48.28842 | 25915 ft | 396 kts | 140° |
| 2026-05-06 22:11 | -22.11025 | -48.26796 | 25414 ft | 394 kts | 140° |
| 2026-05-06 22:11 | -22.12998 | -48.24766 | 24915 ft | 392 kts | 139° |
| 2026-05-06 22:11 | -22.14958 | -48.22749 | 24419 ft | 389 kts | 139° |
| 2026-05-06 22:12 | -22.16912 | -48.20737 | 23923 ft | 387 kts | 139° |
| 2026-05-06 22:12 | -22.18847 | -48.18743 | 23434 ft | 384 kts | 138° |
| 2026-05-06 22:12 | -22.20769 | -48.16762 | 22950 ft | 382 kts | 138° |
| 2026-05-06 22:12 | -22.22678 | -48.14793 | 22472 ft | 379 kts | 138° |
| 2026-05-06 22:13 | -22.24574 | -48.12844 | 21996 ft | 376 kts | 138° |
| 2026-05-06 22:13 | -22.26463 | -48.10905 | 21523 ft | 373 kts | 138° |
| 2026-05-06 22:13 | -22.28330 | -48.08982 | 21055 ft | 370 kts | 137° |
| 2026-05-06 22:13 | -22.30182 | -48.07070 | 20586 ft | 368 kts | 137° |
| 2026-05-06 22:14 | -22.32046 | -48.05143 | 20115 ft | 365 kts | 137° |
| 2026-05-06 22:14 | -22.33865 | -48.03260 | 19654 ft | 362 kts | 137° |
| 2026-05-06 22:14 | -22.35678 | -48.01383 | 19190 ft | 360 kts | 137° |
| 2026-05-06 22:14 | -22.37471 | -47.99527 | 18729 ft | 357 kts | 137° |
| 2026-05-06 22:15 | -22.39257 | -47.97675 | 18272 ft | 354 kts | 137° |
| 2026-05-06 22:15 | -22.41028 | -47.95841 | 17816 ft | 352 kts | 137° |
| 2026-05-06 22:15 | -22.42786 | -47.94018 | 17362 ft | 349 kts | 136° |
| 2026-05-06 22:15 | -22.44531 | -47.92210 | 16909 ft | 347 kts | 136° |
| 2026-05-06 22:16 | -22.46266 | -47.90412 | 16458 ft | 345 kts | 136° |
| 2026-05-06 22:16 | -22.47931 | -47.88578 | 16055 ft | 341 kts | 133° |
| 2026-05-06 22:16 | -22.49479 | -47.86635 | 15677 ft | 342 kts | 130° |
| 2026-05-06 22:16 | -22.50967 | -47.84637 | 15302 ft | 340 kts | 128° |
| 2026-05-06 22:17 | -22.52432 | -47.82643 | 14932 ft | 338 kts | 128° |
| 2026-05-06 22:17 | -22.53900 | -47.80660 | 14565 ft | 338 kts | 128° |
| 2026-05-06 22:17 | -22.55388 | -47.78662 | 14195 ft | 336 kts | 128° |
| 2026-05-06 22:17 | -22.56847 | -47.76707 | 13832 ft | 334 kts | 128° |
| 2026-05-06 22:18 | -22.58308 | -47.74752 | 13471 ft | 335 kts | 128° |
| 2026-05-06 22:18 | -22.59762 | -47.72808 | 13110 ft | 331 kts | 128° |
| 2026-05-06 22:18 | -22.61206 | -47.70879 | 12753 ft | 331 kts | 128° |
| 2026-05-06 22:18 | -22.62647 | -47.68953 | 12421 ft | 328 kts | 128° |
| 2026-05-06 22:19 | -22.64070 | -47.67051 | 12055 ft | 324 kts | 128° |
| 2026-05-06 22:19 | -22.65476 | -47.65172 | 11701 ft | 320 kts | 128° |
| 2026-05-06 22:19 | -22.66866 | -47.63314 | 11352 ft | 316 kts | 128° |
| 2026-05-06 22:19 | -22.68237 | -47.61482 | 11010 ft | 312 kts | 128° |
| 2026-05-06 22:20 | -22.69596 | -47.59666 | 10671 ft | 308 kts | 127° |
| 2026-05-06 22:20 | -22.70909 | -47.57855 | 10339 ft | 304 kts | 125° |
| 2026-05-06 22:20 | -22.72120 | -47.56001 | 10031 ft | 299 kts | 123° |
| 2026-05-06 22:20 | -22.73263 | -47.54151 | 9726 ft | 294 kts | 122° |
| 2026-05-06 22:21 | -22.74394 | -47.52303 | 9465 ft | 287 kts | 122° |
| 2026-05-06 22:21 | -22.75491 | -47.50526 | 9191 ft | 282 kts | 122° |
| 2026-05-06 22:21 | -22.76576 | -47.48779 | 8847 ft | 279 kts | 123° |
| 2026-05-06 22:21 | -22.77648 | -47.47057 | 8653 ft | 271 kts | 123° |
| 2026-05-06 22:22 | -22.78682 | -47.45399 | 8462 ft | 263 kts | 123° |
| 2026-05-06 22:22 | -22.79698 | -47.43769 | 8169 ft | 260 kts | 123° |
| 2026-05-06 22:22 | -22.80706 | -47.42155 | 7842 ft | 258 kts | 123° |
| 2026-05-06 22:22 | -22.81705 | -47.40555 | 7522 ft | 256 kts | 123° |
| 2026-05-06 22:23 | -22.82692 | -47.38976 | 7194 ft | 251 kts | 123° |
| 2026-05-06 22:23 | -22.83652 | -47.37437 | 6927 ft | 242 kts | 123° |
| 2026-05-06 22:23 | -22.84578 | -47.35957 | 6684 ft | 232 kts | 123° |
| 2026-05-06 22:23 | -22.85531 | -47.34570 | 6460 ft | 220 kts | 126° |
| 2026-05-06 22:24 | -22.86466 | -47.33290 | 6246 ft | 214 kts | 127° |
| 2026-05-06 22:24 | -22.87381 | -47.32035 | 6024 ft | 210 kts | 127° |
| 2026-05-06 22:24 | -22.88279 | -47.30794 | 5778 ft | 210 kts | 127° |
| 2026-05-06 22:24 | -22.89175 | -47.29552 | 5506 ft | 209 kts | 126° |
| 2026-05-06 22:25 | -22.90066 | -47.28313 | 5231 ft | 208 kts | 126° |
| 2026-05-06 22:25 | -22.90956 | -47.27076 | 4957 ft | 207 kts | 127° |
| 2026-05-06 22:25 | -22.91837 | -47.25850 | 4682 ft | 205 kts | 127° |
| 2026-05-06 22:25 | -22.92700 | -47.24649 | 4432 ft | 197 kts | 127° |
| 2026-05-06 22:26 | -22.93497 | -47.23539 | 4185 ft | 178 kts | 127° |
| 2026-05-06 22:26 | -22.94227 | -47.22522 | 3943 ft | 165 kts | 127° |
| 2026-05-06 22:26 | -22.94919 | -47.21559 | 3756 ft | 160 kts | 127° |
| 2026-05-06 22:26 | -22.95593 | -47.20620 | 3526 ft | 156 kts | 127° |
| 2026-05-06 22:27 | -22.96264 | -47.19686 | 3311 ft | 155 kts | 127° |
| 2026-05-06 22:27 | -22.96927 | -47.18762 | 3104 ft | 156 kts | 127° |
| 2026-05-06 22:27 | -22.97589 | -47.17840 | 2897 ft | 155 kts | 127° |
| 2026-05-06 22:27 | -22.98251 | -47.16918 | 2692 ft | 155 kts | 127° |
| 2026-05-06 22:28 | -22.98906 | -47.16000 | 2504 ft | 154 kts | 128° |
| 2026-05-06 22:28 | -22.99562 | -47.15093 | 2320 ft | 153 kts | 128° |
| 2026-05-06 22:28 | -23.00208 | -47.14193 | 2186 ft | 147 kts | 129° |
| 2026-05-06 22:28 | -23.00724 | -47.13477 | 2184 ft | 85 kts | 127° |
| 2026-05-06 22:29 | -23.00971 | -47.13132 | 2183 ft | 40 kts | 128° |
| 2026-05-06 22:29 | -23.01100 | -47.12951 | 2183 ft | 23 kts | 133° |
| 2026-05-06 22:29 | -23.01225 | -47.12854 | 2183 ft | 20 kts | 157° |
| 2026-05-06 22:29 | -23.01325 | -47.12810 | 2183 ft | 11 kts | 158° |
| 2026-05-06 22:30 | -23.01381 | -47.12800 | 2183 ft | 7 kts | 206° |
| 2026-05-06 22:30 | -23.01397 | -47.12847 | 2183 ft | 7 kts | 289° |
| 2026-05-06 22:30 | -23.01371 | -47.12891 | 2183 ft | 7 kts | 307° |
| 2026-05-06 22:30 | -23.01338 | -47.12938 | 2183 ft | 10 kts | 307° |
| 2026-05-06 22:31 | -23.01278 | -47.13022 | 2183 ft | 18 kts | 308° |
| 2026-05-06 22:31 | -23.01189 | -47.13146 | 2183 ft | 22 kts | 308° |
| 2026-05-06 22:31 | -23.01098 | -47.13273 | 2183 ft | 21 kts | 308° |
| 2026-05-06 22:31 | -23.01011 | -47.13395 | 2183 ft | 20 kts | 308° |
| 2026-05-06 22:32 | -23.00927 | -47.13511 | 2183 ft | 19 kts | 308° |
| 2026-05-06 22:32 | -23.00849 | -47.13622 | 2183 ft | 18 kts | 308° |
| 2026-05-06 22:32 | -23.00773 | -47.13728 | 2183 ft | 17 kts | 308° |
| 2026-05-06 22:32 | -23.00727 | -47.13812 | 2183 ft | 12 kts | 280° |
| 2026-05-06 22:33 | -23.00715 | -47.13902 | 2183 ft | 12 kts | 281° |
| 2026-05-06 22:33 | -23.00692 | -47.13985 | 2183 ft | 11 kts | 294° |
| 2026-05-06 22:33 | -23.00653 | -47.14056 | 2183 ft | 11 kts | 307° |
| 2026-05-06 22:33 | -23.00609 | -47.14118 | 2183 ft | 10 kts | 308° |
| 2026-05-06 22:34 | -23.00566 | -47.14178 | 2183 ft | 10 kts | 308° |
| 2026-05-06 22:34 | -23.00525 | -47.14235 | 2183 ft | 9 kts | 308° |
| 2026-05-06 22:34 | -23.00485 | -47.14290 | 2183 ft | 9 kts | 308° |
| 2026-05-06 22:34 | -23.00447 | -47.14343 | 2183 ft | 9 kts | 308° |
| 2026-05-06 22:35 | -23.00411 | -47.14393 | 2183 ft | 6 kts | 308° |
| 2026-05-06 22:35 | -23.00399 | -47.14419 | 2183 ft | 4 kts | 263° |
| 2026-05-06 22:35 | -23.00418 | -47.14440 | 2183 ft | 4 kts | 219° |
| 2026-05-06 22:35 | -23.00438 | -47.14457 | 2183 ft | 4 kts | 218° |
| 2026-05-06 22:36 | -23.00457 | -47.14474 | 2183 ft | 3 kts | 218° |
| 2026-05-06 22:36 | -23.00470 | -47.14485 | 2183 ft | 0 kts | 218° |